<?xml version="1.0" encoding="UTF-8" standalone="no" ?>
<gpx xmlns="http://www.topografix.com/GPX/1/1" xmlns:xsi="http://www.w3.org/2001/XMLSchema-instance" xsi:schemaLocation="http://www.topografix.com/GPX/1/1 http://www.topografix.com/GPX/1/1/gpx.xsd" version="1.1" creator="VisuGPX - https://www.visugpx.com">
  <metadata>
    <name>St Ambroix - Malmontade</name>
    <desc><![CDATA[Une boucle sur les hauts de Saint Ambroix avec de superbes panoramas]]></desc>
  </metadata>
  <trk>
    <name><![CDATA[2025-10-14 16:41:25]]></name>
    <extensions>
      <line xmlns="http://www.topografix.com/GPX/gpx_style/0/2">
        <color>0000FF</color>
        <width>4</width>
      </line>
    </extensions>
    <trkseg>
      <trkpt lat="44.2601" lon="4.20142">
        <ele>64.55</ele>
        <time>2025-10-14T11:51:08Z</time>
      </trkpt>
      <trkpt lat="44.26009" lon="4.20143">
        <ele>64.07</ele>
        <time>2025-10-14T11:53:33Z</time>
      </trkpt>
      <trkpt lat="44.26007" lon="4.2014">
        <ele>59.74</ele>
        <time>2025-10-14T11:53:40Z</time>
      </trkpt>
      <trkpt lat="44.26007" lon="4.2014">
        <ele>66.47</ele>
        <time>2025-10-14T11:53:41Z</time>
      </trkpt>
      <trkpt lat="44.26006" lon="4.20139">
        <ele>66.47</ele>
        <time>2025-10-14T11:53:42Z</time>
      </trkpt>
      <trkpt lat="44.26005" lon="4.20138">
        <ele>63.58</ele>
        <time>2025-10-14T11:53:45Z</time>
      </trkpt>
      <trkpt lat="44.26006" lon="4.20138">
        <ele>64.55</ele>
        <time>2025-10-14T11:54:03Z</time>
      </trkpt>
      <trkpt lat="44.2601" lon="4.20137">
        <ele>65.99</ele>
        <time>2025-10-14T11:54:12Z</time>
      </trkpt>
      <trkpt lat="44.2601" lon="4.20138">
        <ele>65.03</ele>
        <time>2025-10-14T11:54:34Z</time>
      </trkpt>
      <trkpt lat="44.2601" lon="4.20138">
        <ele>65.03</ele>
        <time>2025-10-14T11:54:35Z</time>
      </trkpt>
      <trkpt lat="44.26011" lon="4.20135">
        <ele>65.51</ele>
        <time>2025-10-14T11:54:59Z</time>
      </trkpt>
      <trkpt lat="44.26011" lon="4.20132">
        <ele>67.43</ele>
        <time>2025-10-14T11:55:01Z</time>
      </trkpt>
      <trkpt lat="44.2601" lon="4.20131">
        <ele>65.99</ele>
        <time>2025-10-14T11:55:03Z</time>
      </trkpt>
      <trkpt lat="44.26011" lon="4.20128">
        <ele>67.91</ele>
        <time>2025-10-14T11:55:28Z</time>
      </trkpt>
      <trkpt lat="44.26004" lon="4.20111">
        <ele>69.35</ele>
        <time>2025-10-14T11:55:45Z</time>
      </trkpt>
      <trkpt lat="44.26005" lon="4.20101">
        <ele>69.83</ele>
        <time>2025-10-14T11:55:53Z</time>
      </trkpt>
      <trkpt lat="44.26004" lon="4.20092">
        <ele>70.31</ele>
        <time>2025-10-14T11:56:02Z</time>
      </trkpt>
      <trkpt lat="44.26004" lon="4.20087">
        <ele>70.79</ele>
        <time>2025-10-14T11:56:06Z</time>
      </trkpt>
      <trkpt lat="44.2601" lon="4.2008">
        <ele>69.83</ele>
        <time>2025-10-14T11:56:15Z</time>
      </trkpt>
      <trkpt lat="44.2603" lon="4.20071">
        <ele>69.83</ele>
        <time>2025-10-14T11:56:37Z</time>
      </trkpt>
      <trkpt lat="44.26032" lon="4.2007">
        <ele>72.24</ele>
        <time>2025-10-14T11:56:39Z</time>
      </trkpt>
      <trkpt lat="44.26047" lon="4.2006">
        <ele>71.76</ele>
        <time>2025-10-14T11:56:55Z</time>
      </trkpt>
      <trkpt lat="44.26066" lon="4.20046">
        <ele>71.27</ele>
        <time>2025-10-14T11:57:15Z</time>
      </trkpt>
      <trkpt lat="44.26078" lon="4.20042">
        <ele>71.76</ele>
        <time>2025-10-14T11:57:32Z</time>
      </trkpt>
      <trkpt lat="44.26094" lon="4.20028">
        <ele>74.16</ele>
        <time>2025-10-14T11:57:48Z</time>
      </trkpt>
      <trkpt lat="44.26095" lon="4.20023">
        <ele>71.76</ele>
        <time>2025-10-14T11:57:50Z</time>
      </trkpt>
      <trkpt lat="44.26112" lon="4.20022">
        <ele>73.2</ele>
        <time>2025-10-14T11:58:05Z</time>
      </trkpt>
      <trkpt lat="44.26142" lon="4.20014">
        <ele>72.72</ele>
        <time>2025-10-14T11:58:29Z</time>
      </trkpt>
      <trkpt lat="44.26165" lon="4.20001">
        <ele>74.64</ele>
        <time>2025-10-14T11:58:48Z</time>
      </trkpt>
      <trkpt lat="44.26178" lon="4.19978">
        <ele>75.12</ele>
        <time>2025-10-14T11:59:04Z</time>
      </trkpt>
      <trkpt lat="44.2618" lon="4.19967">
        <ele>75.12</ele>
        <time>2025-10-14T11:59:11Z</time>
      </trkpt>
      <trkpt lat="44.26185" lon="4.19951">
        <ele>78</ele>
        <time>2025-10-14T11:59:32Z</time>
      </trkpt>
      <trkpt lat="44.26186" lon="4.19952">
        <ele>78.48</ele>
        <time>2025-10-14T11:59:33Z</time>
      </trkpt>
      <trkpt lat="44.26198" lon="4.19966">
        <ele>78.97</ele>
        <time>2025-10-14T11:59:47Z</time>
      </trkpt>
      <trkpt lat="44.26206" lon="4.19969">
        <ele>78</ele>
        <time>2025-10-14T11:59:54Z</time>
      </trkpt>
      <trkpt lat="44.26212" lon="4.19975">
        <ele>79.45</ele>
        <time>2025-10-14T12:00:02Z</time>
      </trkpt>
      <trkpt lat="44.26232" lon="4.19988">
        <ele>80.89</ele>
        <time>2025-10-14T12:00:19Z</time>
      </trkpt>
      <trkpt lat="44.26252" lon="4.19993">
        <ele>82.33</ele>
        <time>2025-10-14T12:00:40Z</time>
      </trkpt>
      <trkpt lat="44.26276" lon="4.20004">
        <ele>83.77</ele>
        <time>2025-10-14T12:01:02Z</time>
      </trkpt>
      <trkpt lat="44.26277" lon="4.20004">
        <ele>83.77</ele>
        <time>2025-10-14T12:01:03Z</time>
      </trkpt>
      <trkpt lat="44.26292" lon="4.20009">
        <ele>82.81</ele>
        <time>2025-10-14T12:01:16Z</time>
      </trkpt>
      <trkpt lat="44.26309" lon="4.20011">
        <ele>82.81</ele>
        <time>2025-10-14T12:01:33Z</time>
      </trkpt>
      <trkpt lat="44.26329" lon="4.20019">
        <ele>82.81</ele>
        <time>2025-10-14T12:01:52Z</time>
      </trkpt>
      <trkpt lat="44.26347" lon="4.20027">
        <ele>82.33</ele>
        <time>2025-10-14T12:02:13Z</time>
      </trkpt>
      <trkpt lat="44.26377" lon="4.20033">
        <ele>82.33</ele>
        <time>2025-10-14T12:02:35Z</time>
      </trkpt>
      <trkpt lat="44.26392" lon="4.20039">
        <ele>81.37</ele>
        <time>2025-10-14T12:02:48Z</time>
      </trkpt>
      <trkpt lat="44.26394" lon="4.20042">
        <ele>82.81</ele>
        <time>2025-10-14T12:02:50Z</time>
      </trkpt>
      <trkpt lat="44.26418" lon="4.20054">
        <ele>82.33</ele>
        <time>2025-10-14T12:03:10Z</time>
      </trkpt>
      <trkpt lat="44.26425" lon="4.20056">
        <ele>82.33</ele>
        <time>2025-10-14T12:03:21Z</time>
      </trkpt>
      <trkpt lat="44.2643" lon="4.20058">
        <ele>83.77</ele>
        <time>2025-10-14T12:03:26Z</time>
      </trkpt>
      <trkpt lat="44.26455" lon="4.20061">
        <ele>84.73</ele>
        <time>2025-10-14T12:03:48Z</time>
      </trkpt>
      <trkpt lat="44.26459" lon="4.20061">
        <ele>83.29</ele>
        <time>2025-10-14T12:03:52Z</time>
      </trkpt>
      <trkpt lat="44.26465" lon="4.20062">
        <ele>84.73</ele>
        <time>2025-10-14T12:03:59Z</time>
      </trkpt>
      <trkpt lat="44.26473" lon="4.20065">
        <ele>85.21</ele>
        <time>2025-10-14T12:04:18Z</time>
      </trkpt>
      <trkpt lat="44.26491" lon="4.20066">
        <ele>86.18</ele>
        <time>2025-10-14T12:04:36Z</time>
      </trkpt>
      <trkpt lat="44.26501" lon="4.20079">
        <ele>86.66</ele>
        <time>2025-10-14T12:04:55Z</time>
      </trkpt>
      <trkpt lat="44.26516" lon="4.20101">
        <ele>88.1</ele>
        <time>2025-10-14T12:05:15Z</time>
      </trkpt>
      <trkpt lat="44.2653" lon="4.20118">
        <ele>89.06</ele>
        <time>2025-10-14T12:05:32Z</time>
      </trkpt>
      <trkpt lat="44.26549" lon="4.20136">
        <ele>90.02</ele>
        <time>2025-10-14T12:05:52Z</time>
      </trkpt>
      <trkpt lat="44.26563" lon="4.2015">
        <ele>91.46</ele>
        <time>2025-10-14T12:06:07Z</time>
      </trkpt>
      <trkpt lat="44.26579" lon="4.20163">
        <ele>92.42</ele>
        <time>2025-10-14T12:06:23Z</time>
      </trkpt>
      <trkpt lat="44.26591" lon="4.20174">
        <ele>93.87</ele>
        <time>2025-10-14T12:06:38Z</time>
      </trkpt>
      <trkpt lat="44.26609" lon="4.20189">
        <ele>95.31</ele>
        <time>2025-10-14T12:06:56Z</time>
      </trkpt>
      <trkpt lat="44.26622" lon="4.20201">
        <ele>97.23</ele>
        <time>2025-10-14T12:07:12Z</time>
      </trkpt>
      <trkpt lat="44.26631" lon="4.20207">
        <ele>96.27</ele>
        <time>2025-10-14T12:07:21Z</time>
      </trkpt>
      <trkpt lat="44.26633" lon="4.20208">
        <ele>98.19</ele>
        <time>2025-10-14T12:07:23Z</time>
      </trkpt>
      <trkpt lat="44.26635" lon="4.20209">
        <ele>98.19</ele>
        <time>2025-10-14T12:07:25Z</time>
      </trkpt>
      <trkpt lat="44.26643" lon="4.20216">
        <ele>99.63</ele>
        <time>2025-10-14T12:07:33Z</time>
      </trkpt>
      <trkpt lat="44.26651" lon="4.20222">
        <ele>99.63</ele>
        <time>2025-10-14T12:07:42Z</time>
      </trkpt>
      <trkpt lat="44.26657" lon="4.20227">
        <ele>101.08</ele>
        <time>2025-10-14T12:07:48Z</time>
      </trkpt>
      <trkpt lat="44.26659" lon="4.20229">
        <ele>100.11</ele>
        <time>2025-10-14T12:07:50Z</time>
      </trkpt>
      <trkpt lat="44.26661" lon="4.20231">
        <ele>101.56</ele>
        <time>2025-10-14T12:07:53Z</time>
      </trkpt>
      <trkpt lat="44.26678" lon="4.20246">
        <ele>103.48</ele>
        <time>2025-10-14T12:08:15Z</time>
      </trkpt>
      <trkpt lat="44.26691" lon="4.2026">
        <ele>106.84</ele>
        <time>2025-10-14T12:08:33Z</time>
      </trkpt>
      <trkpt lat="44.26692" lon="4.20261">
        <ele>106.84</ele>
        <time>2025-10-14T12:08:34Z</time>
      </trkpt>
      <trkpt lat="44.26701" lon="4.20267">
        <ele>107.32</ele>
        <time>2025-10-14T12:08:48Z</time>
      </trkpt>
      <trkpt lat="44.2671" lon="4.20262">
        <ele>110.21</ele>
        <time>2025-10-14T12:08:57Z</time>
      </trkpt>
      <trkpt lat="44.26723" lon="4.20249">
        <ele>112.13</ele>
        <time>2025-10-14T12:09:14Z</time>
      </trkpt>
      <trkpt lat="44.26732" lon="4.20236">
        <ele>114.53</ele>
        <time>2025-10-14T12:09:32Z</time>
      </trkpt>
      <trkpt lat="44.26734" lon="4.20234">
        <ele>113.57</ele>
        <time>2025-10-14T12:09:35Z</time>
      </trkpt>
      <trkpt lat="44.2674" lon="4.20227">
        <ele>115.5</ele>
        <time>2025-10-14T12:09:45Z</time>
      </trkpt>
      <trkpt lat="44.26742" lon="4.20225">
        <ele>114.05</ele>
        <time>2025-10-14T12:09:48Z</time>
      </trkpt>
      <trkpt lat="44.26746" lon="4.20222">
        <ele>117.9</ele>
        <time>2025-10-14T12:09:53Z</time>
      </trkpt>
      <trkpt lat="44.2675" lon="4.20217">
        <ele>116.94</ele>
        <time>2025-10-14T12:10:00Z</time>
      </trkpt>
      <trkpt lat="44.2676" lon="4.20216">
        <ele>121.26</ele>
        <time>2025-10-14T12:10:16Z</time>
      </trkpt>
      <trkpt lat="44.2676" lon="4.20215">
        <ele>117.9</ele>
        <time>2025-10-14T12:10:17Z</time>
      </trkpt>
      <trkpt lat="44.26764" lon="4.20214">
        <ele>118.86</ele>
        <time>2025-10-14T12:10:23Z</time>
      </trkpt>
      <trkpt lat="44.26765" lon="4.20214">
        <ele>122.22</ele>
        <time>2025-10-14T12:10:25Z</time>
      </trkpt>
      <trkpt lat="44.26766" lon="4.20214">
        <ele>119.34</ele>
        <time>2025-10-14T12:10:26Z</time>
      </trkpt>
      <trkpt lat="44.26773" lon="4.20215">
        <ele>120.3</ele>
        <time>2025-10-14T12:10:36Z</time>
      </trkpt>
      <trkpt lat="44.26778" lon="4.20218">
        <ele>124.15</ele>
        <time>2025-10-14T12:10:40Z</time>
      </trkpt>
      <trkpt lat="44.26779" lon="4.20219">
        <ele>122.22</ele>
        <time>2025-10-14T12:10:41Z</time>
      </trkpt>
      <trkpt lat="44.26782" lon="4.20227">
        <ele>125.11</ele>
        <time>2025-10-14T12:10:51Z</time>
      </trkpt>
      <trkpt lat="44.26781" lon="4.20239">
        <ele>127.51</ele>
        <time>2025-10-14T12:11:09Z</time>
      </trkpt>
      <trkpt lat="44.26778" lon="4.20251">
        <ele>130.4</ele>
        <time>2025-10-14T12:11:24Z</time>
      </trkpt>
      <trkpt lat="44.26778" lon="4.20252">
        <ele>127.03</ele>
        <time>2025-10-14T12:11:25Z</time>
      </trkpt>
      <trkpt lat="44.26778" lon="4.20253">
        <ele>130.4</ele>
        <time>2025-10-14T12:11:27Z</time>
      </trkpt>
      <trkpt lat="44.26778" lon="4.20254">
        <ele>127.03</ele>
        <time>2025-10-14T12:11:28Z</time>
      </trkpt>
      <trkpt lat="44.26778" lon="4.20255">
        <ele>131.84</ele>
        <time>2025-10-14T12:11:29Z</time>
      </trkpt>
      <trkpt lat="44.26778" lon="4.20256">
        <ele>128.47</ele>
        <time>2025-10-14T12:11:30Z</time>
      </trkpt>
      <trkpt lat="44.26777" lon="4.20259">
        <ele>132.32</ele>
        <time>2025-10-14T12:11:34Z</time>
      </trkpt>
      <trkpt lat="44.26777" lon="4.20259">
        <ele>128.95</ele>
        <time>2025-10-14T12:11:35Z</time>
      </trkpt>
      <trkpt lat="44.26776" lon="4.2026">
        <ele>132.8</ele>
        <time>2025-10-14T12:11:36Z</time>
      </trkpt>
      <trkpt lat="44.26776" lon="4.20262">
        <ele>128.47</ele>
        <time>2025-10-14T12:11:39Z</time>
      </trkpt>
      <trkpt lat="44.26776" lon="4.20263">
        <ele>132.8</ele>
        <time>2025-10-14T12:11:40Z</time>
      </trkpt>
      <trkpt lat="44.26776" lon="4.20264">
        <ele>132.8</ele>
        <time>2025-10-14T12:11:41Z</time>
      </trkpt>
      <trkpt lat="44.26776" lon="4.20264">
        <ele>128.95</ele>
        <time>2025-10-14T12:11:42Z</time>
      </trkpt>
      <trkpt lat="44.26776" lon="4.20265">
        <ele>133.76</ele>
        <time>2025-10-14T12:11:43Z</time>
      </trkpt>
      <trkpt lat="44.26775" lon="4.20267">
        <ele>129.92</ele>
        <time>2025-10-14T12:11:45Z</time>
      </trkpt>
      <trkpt lat="44.26775" lon="4.20268">
        <ele>133.76</ele>
        <time>2025-10-14T12:11:46Z</time>
      </trkpt>
      <trkpt lat="44.26775" lon="4.20272">
        <ele>130.4</ele>
        <time>2025-10-14T12:11:50Z</time>
      </trkpt>
      <trkpt lat="44.26775" lon="4.20273">
        <ele>134.24</ele>
        <time>2025-10-14T12:11:51Z</time>
      </trkpt>
      <trkpt lat="44.26775" lon="4.20275">
        <ele>130.4</ele>
        <time>2025-10-14T12:11:53Z</time>
      </trkpt>
      <trkpt lat="44.26775" lon="4.20275">
        <ele>136.16</ele>
        <time>2025-10-14T12:11:54Z</time>
      </trkpt>
      <trkpt lat="44.26775" lon="4.20276">
        <ele>132.32</ele>
        <time>2025-10-14T12:11:55Z</time>
      </trkpt>
      <trkpt lat="44.26776" lon="4.20277">
        <ele>135.2</ele>
        <time>2025-10-14T12:11:57Z</time>
      </trkpt>
      <trkpt lat="44.26776" lon="4.20279">
        <ele>131.36</ele>
        <time>2025-10-14T12:11:59Z</time>
      </trkpt>
      <trkpt lat="44.26776" lon="4.2028">
        <ele>136.16</ele>
        <time>2025-10-14T12:12:00Z</time>
      </trkpt>
      <trkpt lat="44.26776" lon="4.20281">
        <ele>132.8</ele>
        <time>2025-10-14T12:12:01Z</time>
      </trkpt>
      <trkpt lat="44.26777" lon="4.20285">
        <ele>136.16</ele>
        <time>2025-10-14T12:12:06Z</time>
      </trkpt>
      <trkpt lat="44.26777" lon="4.20285">
        <ele>134.24</ele>
        <time>2025-10-14T12:12:07Z</time>
      </trkpt>
      <trkpt lat="44.26777" lon="4.20291">
        <ele>137.61</ele>
        <time>2025-10-14T12:12:12Z</time>
      </trkpt>
      <trkpt lat="44.26777" lon="4.20292">
        <ele>133.76</ele>
        <time>2025-10-14T12:12:13Z</time>
      </trkpt>
      <trkpt lat="44.26777" lon="4.20293">
        <ele>137.13</ele>
        <time>2025-10-14T12:12:14Z</time>
      </trkpt>
      <trkpt lat="44.26781" lon="4.2031">
        <ele>139.05</ele>
        <time>2025-10-14T12:12:32Z</time>
      </trkpt>
      <trkpt lat="44.26784" lon="4.2032">
        <ele>141.93</ele>
        <time>2025-10-14T12:12:43Z</time>
      </trkpt>
      <trkpt lat="44.26786" lon="4.2033">
        <ele>139.53</ele>
        <time>2025-10-14T12:12:51Z</time>
      </trkpt>
      <trkpt lat="44.26786" lon="4.20331">
        <ele>143.85</ele>
        <time>2025-10-14T12:12:52Z</time>
      </trkpt>
      <trkpt lat="44.26786" lon="4.20332">
        <ele>140.97</ele>
        <time>2025-10-14T12:12:53Z</time>
      </trkpt>
      <trkpt lat="44.26786" lon="4.20335">
        <ele>143.85</ele>
        <time>2025-10-14T12:12:56Z</time>
      </trkpt>
      <trkpt lat="44.26789" lon="4.20355">
        <ele>145.78</ele>
        <time>2025-10-14T12:13:13Z</time>
      </trkpt>
      <trkpt lat="44.26789" lon="4.20366">
        <ele>145.78</ele>
        <time>2025-10-14T12:13:26Z</time>
      </trkpt>
      <trkpt lat="44.26789" lon="4.20377">
        <ele>149.14</ele>
        <time>2025-10-14T12:13:37Z</time>
      </trkpt>
      <trkpt lat="44.2679" lon="4.20379">
        <ele>145.78</ele>
        <time>2025-10-14T12:13:39Z</time>
      </trkpt>
      <trkpt lat="44.2679" lon="4.2038">
        <ele>150.1</ele>
        <time>2025-10-14T12:13:40Z</time>
      </trkpt>
      <trkpt lat="44.2679" lon="4.20381">
        <ele>148.18</ele>
        <time>2025-10-14T12:13:41Z</time>
      </trkpt>
      <trkpt lat="44.26791" lon="4.20384">
        <ele>148.66</ele>
        <time>2025-10-14T12:13:45Z</time>
      </trkpt>
      <trkpt lat="44.26792" lon="4.20386">
        <ele>147.22</ele>
        <time>2025-10-14T12:13:47Z</time>
      </trkpt>
      <trkpt lat="44.26794" lon="4.20394">
        <ele>151.06</ele>
        <time>2025-10-14T12:13:54Z</time>
      </trkpt>
      <trkpt lat="44.26795" lon="4.20395">
        <ele>146.74</ele>
        <time>2025-10-14T12:13:56Z</time>
      </trkpt>
      <trkpt lat="44.26795" lon="4.20396">
        <ele>152.03</ele>
        <time>2025-10-14T12:13:57Z</time>
      </trkpt>
      <trkpt lat="44.26796" lon="4.20397">
        <ele>150.58</ele>
        <time>2025-10-14T12:13:58Z</time>
      </trkpt>
      <trkpt lat="44.26798" lon="4.20405">
        <ele>151.06</ele>
        <time>2025-10-14T12:14:05Z</time>
      </trkpt>
      <trkpt lat="44.26799" lon="4.20408">
        <ele>149.62</ele>
        <time>2025-10-14T12:14:07Z</time>
      </trkpt>
      <trkpt lat="44.26799" lon="4.20409">
        <ele>152.99</ele>
        <time>2025-10-14T12:14:08Z</time>
      </trkpt>
      <trkpt lat="44.26799" lon="4.2041">
        <ele>152.99</ele>
        <time>2025-10-14T12:14:09Z</time>
      </trkpt>
      <trkpt lat="44.26801" lon="4.20415">
        <ele>152.99</ele>
        <time>2025-10-14T12:14:13Z</time>
      </trkpt>
      <trkpt lat="44.26801" lon="4.20417">
        <ele>149.14</ele>
        <time>2025-10-14T12:14:15Z</time>
      </trkpt>
      <trkpt lat="44.26801" lon="4.20418">
        <ele>155.39</ele>
        <time>2025-10-14T12:14:16Z</time>
      </trkpt>
      <trkpt lat="44.26801" lon="4.20419">
        <ele>152.51</ele>
        <time>2025-10-14T12:14:17Z</time>
      </trkpt>
      <trkpt lat="44.26802" lon="4.20422">
        <ele>152.03</ele>
        <time>2025-10-14T12:14:19Z</time>
      </trkpt>
      <trkpt lat="44.26803" lon="4.20427">
        <ele>153.47</ele>
        <time>2025-10-14T12:14:23Z</time>
      </trkpt>
      <trkpt lat="44.26803" lon="4.20436">
        <ele>150.58</ele>
        <time>2025-10-14T12:14:31Z</time>
      </trkpt>
      <trkpt lat="44.26804" lon="4.20437">
        <ele>155.39</ele>
        <time>2025-10-14T12:14:32Z</time>
      </trkpt>
      <trkpt lat="44.26804" lon="4.20445">
        <ele>156.83</ele>
        <time>2025-10-14T12:14:40Z</time>
      </trkpt>
      <trkpt lat="44.26804" lon="4.20446">
        <ele>153.95</ele>
        <time>2025-10-14T12:14:42Z</time>
      </trkpt>
      <trkpt lat="44.26805" lon="4.20448">
        <ele>157.31</ele>
        <time>2025-10-14T12:14:45Z</time>
      </trkpt>
      <trkpt lat="44.26805" lon="4.20449">
        <ele>155.87</ele>
        <time>2025-10-14T12:14:46Z</time>
      </trkpt>
      <trkpt lat="44.26807" lon="4.20456">
        <ele>152.51</ele>
        <time>2025-10-14T12:14:51Z</time>
      </trkpt>
      <trkpt lat="44.26807" lon="4.20457">
        <ele>159.24</ele>
        <time>2025-10-14T12:14:52Z</time>
      </trkpt>
      <trkpt lat="44.26808" lon="4.2046">
        <ele>155.87</ele>
        <time>2025-10-14T12:14:55Z</time>
      </trkpt>
      <trkpt lat="44.2681" lon="4.20464">
        <ele>159.72</ele>
        <time>2025-10-14T12:14:59Z</time>
      </trkpt>
      <trkpt lat="44.2681" lon="4.20465">
        <ele>158.27</ele>
        <time>2025-10-14T12:15:00Z</time>
      </trkpt>
      <trkpt lat="44.26816" lon="4.20481">
        <ele>162.6</ele>
        <time>2025-10-14T12:15:18Z</time>
      </trkpt>
      <trkpt lat="44.26816" lon="4.20481">
        <ele>160.2</ele>
        <time>2025-10-14T12:15:19Z</time>
      </trkpt>
      <trkpt lat="44.26817" lon="4.20483">
        <ele>159.72</ele>
        <time>2025-10-14T12:15:21Z</time>
      </trkpt>
      <trkpt lat="44.26817" lon="4.20487">
        <ele>161.16</ele>
        <time>2025-10-14T12:15:25Z</time>
      </trkpt>
      <trkpt lat="44.26817" lon="4.20488">
        <ele>157.79</ele>
        <time>2025-10-14T12:15:26Z</time>
      </trkpt>
      <trkpt lat="44.26817" lon="4.20489">
        <ele>163.08</ele>
        <time>2025-10-14T12:15:27Z</time>
      </trkpt>
      <trkpt lat="44.26818" lon="4.2049">
        <ele>159.24</ele>
        <time>2025-10-14T12:15:29Z</time>
      </trkpt>
      <trkpt lat="44.26818" lon="4.20491">
        <ele>163.08</ele>
        <time>2025-10-14T12:15:30Z</time>
      </trkpt>
      <trkpt lat="44.26818" lon="4.20492">
        <ele>158.75</ele>
        <time>2025-10-14T12:15:31Z</time>
      </trkpt>
      <trkpt lat="44.26818" lon="4.20494">
        <ele>162.6</ele>
        <time>2025-10-14T12:15:33Z</time>
      </trkpt>
      <trkpt lat="44.26817" lon="4.20507">
        <ele>163.08</ele>
        <time>2025-10-14T12:15:43Z</time>
      </trkpt>
      <trkpt lat="44.26817" lon="4.20515">
        <ele>162.6</ele>
        <time>2025-10-14T12:15:48Z</time>
      </trkpt>
      <trkpt lat="44.26818" lon="4.20518">
        <ele>164.52</ele>
        <time>2025-10-14T12:15:50Z</time>
      </trkpt>
      <trkpt lat="44.26817" lon="4.2053">
        <ele>165</ele>
        <time>2025-10-14T12:16:00Z</time>
      </trkpt>
      <trkpt lat="44.26816" lon="4.20533">
        <ele>160.68</ele>
        <time>2025-10-14T12:16:02Z</time>
      </trkpt>
      <trkpt lat="44.26816" lon="4.20534">
        <ele>166.93</ele>
        <time>2025-10-14T12:16:03Z</time>
      </trkpt>
      <trkpt lat="44.26816" lon="4.20538">
        <ele>164.04</ele>
        <time>2025-10-14T12:16:06Z</time>
      </trkpt>
      <trkpt lat="44.26817" lon="4.20541">
        <ele>165.48</ele>
        <time>2025-10-14T12:16:09Z</time>
      </trkpt>
      <trkpt lat="44.26822" lon="4.20557">
        <ele>165.96</ele>
        <time>2025-10-14T12:16:26Z</time>
      </trkpt>
      <trkpt lat="44.26822" lon="4.20559">
        <ele>167.41</ele>
        <time>2025-10-14T12:16:28Z</time>
      </trkpt>
      <trkpt lat="44.26822" lon="4.2057">
        <ele>170.29</ele>
        <time>2025-10-14T12:16:36Z</time>
      </trkpt>
      <trkpt lat="44.26822" lon="4.20575">
        <ele>167.41</ele>
        <time>2025-10-14T12:16:40Z</time>
      </trkpt>
      <trkpt lat="44.26823" lon="4.20577">
        <ele>169.81</ele>
        <time>2025-10-14T12:16:42Z</time>
      </trkpt>
      <trkpt lat="44.26823" lon="4.20594">
        <ele>170.77</ele>
        <time>2025-10-14T12:16:58Z</time>
      </trkpt>
      <trkpt lat="44.26823" lon="4.20601">
        <ele>171.73</ele>
        <time>2025-10-14T12:17:07Z</time>
      </trkpt>
      <trkpt lat="44.26823" lon="4.20609">
        <ele>171.73</ele>
        <time>2025-10-14T12:17:28Z</time>
      </trkpt>
      <trkpt lat="44.26825" lon="4.20609">
        <ele>171.73</ele>
        <time>2025-10-14T12:17:55Z</time>
      </trkpt>
      <trkpt lat="44.26825" lon="4.20608">
        <ele>172.21</ele>
        <time>2025-10-14T12:18:27Z</time>
      </trkpt>
      <trkpt lat="44.26825" lon="4.20608">
        <ele>173.66</ele>
        <time>2025-10-14T12:18:30Z</time>
      </trkpt>
      <trkpt lat="44.26825" lon="4.20608">
        <ele>174.14</ele>
        <time>2025-10-14T12:19:03Z</time>
      </trkpt>
      <trkpt lat="44.26825" lon="4.20609">
        <ele>172.69</ele>
        <time>2025-10-14T12:19:34Z</time>
      </trkpt>
      <trkpt lat="44.26824" lon="4.20613">
        <ele>177.02</ele>
        <time>2025-10-14T12:19:40Z</time>
      </trkpt>
      <trkpt lat="44.26824" lon="4.20616">
        <ele>173.66</ele>
        <time>2025-10-14T12:19:43Z</time>
      </trkpt>
      <trkpt lat="44.26824" lon="4.20625">
        <ele>177.5</ele>
        <time>2025-10-14T12:19:51Z</time>
      </trkpt>
      <trkpt lat="44.26823" lon="4.20636">
        <ele>174.14</ele>
        <time>2025-10-14T12:20:06Z</time>
      </trkpt>
      <trkpt lat="44.26823" lon="4.20637">
        <ele>180.87</ele>
        <time>2025-10-14T12:20:07Z</time>
      </trkpt>
      <trkpt lat="44.26823" lon="4.20637">
        <ele>178.94</ele>
        <time>2025-10-14T12:20:08Z</time>
      </trkpt>
      <trkpt lat="44.26821" lon="4.20656">
        <ele>179.42</ele>
        <time>2025-10-14T12:20:29Z</time>
      </trkpt>
      <trkpt lat="44.26819" lon="4.20666">
        <ele>182.31</ele>
        <time>2025-10-14T12:20:41Z</time>
      </trkpt>
      <trkpt lat="44.26816" lon="4.20682">
        <ele>182.79</ele>
        <time>2025-10-14T12:20:58Z</time>
      </trkpt>
      <trkpt lat="44.26815" lon="4.20688">
        <ele>185.19</ele>
        <time>2025-10-14T12:21:10Z</time>
      </trkpt>
      <trkpt lat="44.26812" lon="4.20699">
        <ele>186.63</ele>
        <time>2025-10-14T12:21:22Z</time>
      </trkpt>
      <trkpt lat="44.26811" lon="4.20711">
        <ele>187.59</ele>
        <time>2025-10-14T12:21:31Z</time>
      </trkpt>
      <trkpt lat="44.26811" lon="4.20713">
        <ele>186.15</ele>
        <time>2025-10-14T12:21:33Z</time>
      </trkpt>
      <trkpt lat="44.26811" lon="4.20716">
        <ele>189.52</ele>
        <time>2025-10-14T12:21:36Z</time>
      </trkpt>
      <trkpt lat="44.26811" lon="4.20717">
        <ele>188.08</ele>
        <time>2025-10-14T12:21:37Z</time>
      </trkpt>
      <trkpt lat="44.2681" lon="4.20735">
        <ele>188.56</ele>
        <time>2025-10-14T12:21:53Z</time>
      </trkpt>
      <trkpt lat="44.26808" lon="4.20748">
        <ele>192.4</ele>
        <time>2025-10-14T12:22:07Z</time>
      </trkpt>
      <trkpt lat="44.26807" lon="4.20752">
        <ele>192.88</ele>
        <time>2025-10-14T12:22:11Z</time>
      </trkpt>
      <trkpt lat="44.26807" lon="4.20771">
        <ele>194.8</ele>
        <time>2025-10-14T12:22:32Z</time>
      </trkpt>
      <trkpt lat="44.26802" lon="4.20788">
        <ele>197.21</ele>
        <time>2025-10-14T12:22:54Z</time>
      </trkpt>
      <trkpt lat="44.26802" lon="4.20798">
        <ele>197.69</ele>
        <time>2025-10-14T12:23:04Z</time>
      </trkpt>
      <trkpt lat="44.2681" lon="4.20812">
        <ele>199.13</ele>
        <time>2025-10-14T12:23:22Z</time>
      </trkpt>
      <trkpt lat="44.26812" lon="4.20829">
        <ele>200.09</ele>
        <time>2025-10-14T12:23:38Z</time>
      </trkpt>
      <trkpt lat="44.26812" lon="4.20831">
        <ele>201.53</ele>
        <time>2025-10-14T12:23:40Z</time>
      </trkpt>
      <trkpt lat="44.26811" lon="4.20833">
        <ele>200.09</ele>
        <time>2025-10-14T12:23:42Z</time>
      </trkpt>
      <trkpt lat="44.26813" lon="4.20843">
        <ele>204.9</ele>
        <time>2025-10-14T12:23:57Z</time>
      </trkpt>
      <trkpt lat="44.26813" lon="4.20844">
        <ele>201.05</ele>
        <time>2025-10-14T12:23:58Z</time>
      </trkpt>
      <trkpt lat="44.26813" lon="4.20845">
        <ele>204.9</ele>
        <time>2025-10-14T12:23:59Z</time>
      </trkpt>
      <trkpt lat="44.26813" lon="4.20846">
        <ele>201.53</ele>
        <time>2025-10-14T12:24:01Z</time>
      </trkpt>
      <trkpt lat="44.26813" lon="4.20847">
        <ele>204.9</ele>
        <time>2025-10-14T12:24:02Z</time>
      </trkpt>
      <trkpt lat="44.26814" lon="4.20853">
        <ele>201.05</ele>
        <time>2025-10-14T12:24:09Z</time>
      </trkpt>
      <trkpt lat="44.26814" lon="4.20853">
        <ele>207.3</ele>
        <time>2025-10-14T12:24:10Z</time>
      </trkpt>
      <trkpt lat="44.26815" lon="4.20854">
        <ele>203.94</ele>
        <time>2025-10-14T12:24:11Z</time>
      </trkpt>
      <trkpt lat="44.26815" lon="4.20856">
        <ele>207.3</ele>
        <time>2025-10-14T12:24:16Z</time>
      </trkpt>
      <trkpt lat="44.26815" lon="4.20856">
        <ele>203.46</ele>
        <time>2025-10-14T12:24:17Z</time>
      </trkpt>
      <trkpt lat="44.26815" lon="4.20857">
        <ele>207.3</ele>
        <time>2025-10-14T12:24:18Z</time>
      </trkpt>
      <trkpt lat="44.26816" lon="4.20865">
        <ele>202.98</ele>
        <time>2025-10-14T12:24:31Z</time>
      </trkpt>
      <trkpt lat="44.26816" lon="4.20866">
        <ele>210.67</ele>
        <time>2025-10-14T12:24:32Z</time>
      </trkpt>
      <trkpt lat="44.26816" lon="4.20866">
        <ele>206.34</ele>
        <time>2025-10-14T12:24:33Z</time>
      </trkpt>
      <trkpt lat="44.26816" lon="4.2088">
        <ele>210.19</ele>
        <time>2025-10-14T12:24:48Z</time>
      </trkpt>
      <trkpt lat="44.26816" lon="4.2088">
        <ele>206.34</ele>
        <time>2025-10-14T12:24:49Z</time>
      </trkpt>
      <trkpt lat="44.26817" lon="4.2088">
        <ele>212.11</ele>
        <time>2025-10-14T12:24:50Z</time>
      </trkpt>
      <trkpt lat="44.26817" lon="4.20881">
        <ele>206.82</ele>
        <time>2025-10-14T12:24:51Z</time>
      </trkpt>
      <trkpt lat="44.26817" lon="4.20881">
        <ele>212.11</ele>
        <time>2025-10-14T12:24:52Z</time>
      </trkpt>
      <trkpt lat="44.26817" lon="4.20881">
        <ele>208.74</ele>
        <time>2025-10-14T12:24:53Z</time>
      </trkpt>
      <trkpt lat="44.26817" lon="4.20889">
        <ele>212.59</ele>
        <time>2025-10-14T12:25:02Z</time>
      </trkpt>
      <trkpt lat="44.26818" lon="4.20895">
        <ele>210.67</ele>
        <time>2025-10-14T12:25:09Z</time>
      </trkpt>
      <trkpt lat="44.26818" lon="4.20897">
        <ele>213.07</ele>
        <time>2025-10-14T12:25:16Z</time>
      </trkpt>
      <trkpt lat="44.26818" lon="4.20912">
        <ele>214.51</ele>
        <time>2025-10-14T12:25:36Z</time>
      </trkpt>
      <trkpt lat="44.2682" lon="4.20933">
        <ele>215.95</ele>
        <time>2025-10-14T12:26:00Z</time>
      </trkpt>
      <trkpt lat="44.26819" lon="4.2094">
        <ele>216.43</ele>
        <time>2025-10-14T12:26:27Z</time>
      </trkpt>
      <trkpt lat="44.26819" lon="4.2094">
        <ele>217.4</ele>
        <time>2025-10-14T12:26:55Z</time>
      </trkpt>
      <trkpt lat="44.26825" lon="4.20943">
        <ele>217.4</ele>
        <time>2025-10-14T12:27:20Z</time>
      </trkpt>
      <trkpt lat="44.26841" lon="4.20944">
        <ele>218.36</ele>
        <time>2025-10-14T12:27:40Z</time>
      </trkpt>
      <trkpt lat="44.26855" lon="4.20943">
        <ele>218.84</ele>
        <time>2025-10-14T12:27:58Z</time>
      </trkpt>
      <trkpt lat="44.26864" lon="4.20941">
        <ele>218.84</ele>
        <time>2025-10-14T12:28:13Z</time>
      </trkpt>
      <trkpt lat="44.26884" lon="4.20941">
        <ele>219.8</ele>
        <time>2025-10-14T12:28:33Z</time>
      </trkpt>
      <trkpt lat="44.269" lon="4.20939">
        <ele>220.76</ele>
        <time>2025-10-14T12:28:52Z</time>
      </trkpt>
      <trkpt lat="44.26919" lon="4.20941">
        <ele>222.2</ele>
        <time>2025-10-14T12:29:12Z</time>
      </trkpt>
      <trkpt lat="44.26938" lon="4.2094">
        <ele>221.72</ele>
        <time>2025-10-14T12:29:33Z</time>
      </trkpt>
      <trkpt lat="44.26941" lon="4.2094">
        <ele>223.16</ele>
        <time>2025-10-14T12:29:36Z</time>
      </trkpt>
      <trkpt lat="44.26957" lon="4.20939">
        <ele>225.09</ele>
        <time>2025-10-14T12:29:55Z</time>
      </trkpt>
      <trkpt lat="44.26968" lon="4.20936">
        <ele>225.09</ele>
        <time>2025-10-14T12:30:06Z</time>
      </trkpt>
      <trkpt lat="44.26986" lon="4.20934">
        <ele>226.05</ele>
        <time>2025-10-14T12:30:26Z</time>
      </trkpt>
      <trkpt lat="44.27" lon="4.20933">
        <ele>227.49</ele>
        <time>2025-10-14T12:30:44Z</time>
      </trkpt>
      <trkpt lat="44.27017" lon="4.20931">
        <ele>228.93</ele>
        <time>2025-10-14T12:31:04Z</time>
      </trkpt>
      <trkpt lat="44.27029" lon="4.20927">
        <ele>227.49</ele>
        <time>2025-10-14T12:31:23Z</time>
      </trkpt>
      <trkpt lat="44.27029" lon="4.20927">
        <ele>231.33</ele>
        <time>2025-10-14T12:31:24Z</time>
      </trkpt>
      <trkpt lat="44.27037" lon="4.20927">
        <ele>231.33</ele>
        <time>2025-10-14T12:31:33Z</time>
      </trkpt>
      <trkpt lat="44.27038" lon="4.20927">
        <ele>230.37</ele>
        <time>2025-10-14T12:31:35Z</time>
      </trkpt>
      <trkpt lat="44.27042" lon="4.20926">
        <ele>231.81</ele>
        <time>2025-10-14T12:31:40Z</time>
      </trkpt>
      <trkpt lat="44.27055" lon="4.20924">
        <ele>232.78</ele>
        <time>2025-10-14T12:32:00Z</time>
      </trkpt>
      <trkpt lat="44.27069" lon="4.20921">
        <ele>236.14</ele>
        <time>2025-10-14T12:32:23Z</time>
      </trkpt>
      <trkpt lat="44.2708" lon="4.20918">
        <ele>236.14</ele>
        <time>2025-10-14T12:32:37Z</time>
      </trkpt>
      <trkpt lat="44.2709" lon="4.20917">
        <ele>238.54</ele>
        <time>2025-10-14T12:32:54Z</time>
      </trkpt>
      <trkpt lat="44.271" lon="4.20914">
        <ele>239.51</ele>
        <time>2025-10-14T12:33:13Z</time>
      </trkpt>
      <trkpt lat="44.27114" lon="4.20913">
        <ele>240.47</ele>
        <time>2025-10-14T12:33:32Z</time>
      </trkpt>
      <trkpt lat="44.27126" lon="4.2091">
        <ele>243.35</ele>
        <time>2025-10-14T12:33:52Z</time>
      </trkpt>
      <trkpt lat="44.27141" lon="4.2091">
        <ele>244.31</ele>
        <time>2025-10-14T12:34:12Z</time>
      </trkpt>
      <trkpt lat="44.27158" lon="4.20921">
        <ele>242.87</ele>
        <time>2025-10-14T12:34:32Z</time>
      </trkpt>
      <trkpt lat="44.27172" lon="4.20928">
        <ele>241.91</ele>
        <time>2025-10-14T12:34:49Z</time>
      </trkpt>
      <trkpt lat="44.27173" lon="4.20929">
        <ele>242.87</ele>
        <time>2025-10-14T12:34:51Z</time>
      </trkpt>
      <trkpt lat="44.27181" lon="4.20933">
        <ele>241.43</ele>
        <time>2025-10-14T12:35:02Z</time>
      </trkpt>
      <trkpt lat="44.27195" lon="4.20943">
        <ele>240.95</ele>
        <time>2025-10-14T12:35:23Z</time>
      </trkpt>
      <trkpt lat="44.27208" lon="4.20949">
        <ele>239.99</ele>
        <time>2025-10-14T12:35:41Z</time>
      </trkpt>
      <trkpt lat="44.2721" lon="4.20952">
        <ele>238.54</ele>
        <time>2025-10-14T12:35:47Z</time>
      </trkpt>
      <trkpt lat="44.2721" lon="4.20952">
        <ele>242.39</ele>
        <time>2025-10-14T12:35:48Z</time>
      </trkpt>
      <trkpt lat="44.2721" lon="4.20952">
        <ele>242.39</ele>
        <time>2025-10-14T12:35:49Z</time>
      </trkpt>
      <trkpt lat="44.27211" lon="4.20954">
        <ele>240.47</ele>
        <time>2025-10-14T12:36:22Z</time>
      </trkpt>
      <trkpt lat="44.27212" lon="4.20954">
        <ele>240.47</ele>
        <time>2025-10-14T12:36:53Z</time>
      </trkpt>
      <trkpt lat="44.27212" lon="4.20954">
        <ele>242.87</ele>
        <time>2025-10-14T12:36:56Z</time>
      </trkpt>
      <trkpt lat="44.27212" lon="4.20954">
        <ele>240.47</ele>
        <time>2025-10-14T12:36:58Z</time>
      </trkpt>
      <trkpt lat="44.27212" lon="4.20953">
        <ele>240.95</ele>
        <time>2025-10-14T12:37:31Z</time>
      </trkpt>
      <trkpt lat="44.27221" lon="4.20959">
        <ele>240.95</ele>
        <time>2025-10-14T12:37:54Z</time>
      </trkpt>
      <trkpt lat="44.27235" lon="4.20969">
        <ele>240.95</ele>
        <time>2025-10-14T12:38:10Z</time>
      </trkpt>
      <trkpt lat="44.27248" lon="4.20979">
        <ele>241.43</ele>
        <time>2025-10-14T12:38:26Z</time>
      </trkpt>
      <trkpt lat="44.2726" lon="4.20987">
        <ele>242.39</ele>
        <time>2025-10-14T12:38:42Z</time>
      </trkpt>
      <trkpt lat="44.27273" lon="4.20998">
        <ele>243.83</ele>
        <time>2025-10-14T12:39:01Z</time>
      </trkpt>
      <trkpt lat="44.27277" lon="4.21001">
        <ele>242.39</ele>
        <time>2025-10-14T12:39:06Z</time>
      </trkpt>
      <trkpt lat="44.27288" lon="4.21007">
        <ele>244.79</ele>
        <time>2025-10-14T12:39:19Z</time>
      </trkpt>
      <trkpt lat="44.27299" lon="4.21017">
        <ele>245.27</ele>
        <time>2025-10-14T12:39:38Z</time>
      </trkpt>
      <trkpt lat="44.273" lon="4.21018">
        <ele>245.27</ele>
        <time>2025-10-14T12:39:39Z</time>
      </trkpt>
      <trkpt lat="44.27307" lon="4.21025">
        <ele>247.68</ele>
        <time>2025-10-14T12:39:58Z</time>
      </trkpt>
      <trkpt lat="44.27307" lon="4.21026">
        <ele>246.72</ele>
        <time>2025-10-14T12:40:24Z</time>
      </trkpt>
      <trkpt lat="44.27306" lon="4.21027">
        <ele>247.68</ele>
        <time>2025-10-14T12:40:31Z</time>
      </trkpt>
      <trkpt lat="44.27306" lon="4.21027">
        <ele>246.23</ele>
        <time>2025-10-14T12:40:35Z</time>
      </trkpt>
      <trkpt lat="44.27306" lon="4.21028">
        <ele>247.68</ele>
        <time>2025-10-14T12:40:42Z</time>
      </trkpt>
      <trkpt lat="44.27306" lon="4.2103">
        <ele>247.68</ele>
        <time>2025-10-14T12:41:09Z</time>
      </trkpt>
      <trkpt lat="44.27312" lon="4.2104">
        <ele>246.72</ele>
        <time>2025-10-14T12:41:25Z</time>
      </trkpt>
      <trkpt lat="44.27313" lon="4.21041">
        <ele>248.16</ele>
        <time>2025-10-14T12:41:26Z</time>
      </trkpt>
      <trkpt lat="44.27321" lon="4.21061">
        <ele>246.23</ele>
        <time>2025-10-14T12:41:44Z</time>
      </trkpt>
      <trkpt lat="44.27326" lon="4.21075">
        <ele>245.27</ele>
        <time>2025-10-14T12:41:56Z</time>
      </trkpt>
      <trkpt lat="44.27332" lon="4.21091">
        <ele>246.23</ele>
        <time>2025-10-14T12:42:12Z</time>
      </trkpt>
      <trkpt lat="44.27335" lon="4.21102">
        <ele>244.31</ele>
        <time>2025-10-14T12:42:20Z</time>
      </trkpt>
      <trkpt lat="44.27341" lon="4.21127">
        <ele>243.83</ele>
        <time>2025-10-14T12:42:37Z</time>
      </trkpt>
      <trkpt lat="44.27343" lon="4.21135">
        <ele>244.79</ele>
        <time>2025-10-14T12:42:44Z</time>
      </trkpt>
      <trkpt lat="44.27344" lon="4.21147">
        <ele>244.79</ele>
        <time>2025-10-14T12:42:53Z</time>
      </trkpt>
      <trkpt lat="44.27342" lon="4.21155">
        <ele>243.83</ele>
        <time>2025-10-14T12:43:00Z</time>
      </trkpt>
      <trkpt lat="44.27338" lon="4.21161">
        <ele>245.27</ele>
        <time>2025-10-14T12:43:18Z</time>
      </trkpt>
      <trkpt lat="44.27326" lon="4.21174">
        <ele>244.79</ele>
        <time>2025-10-14T12:43:34Z</time>
      </trkpt>
      <trkpt lat="44.27314" lon="4.21182">
        <ele>246.72</ele>
        <time>2025-10-14T12:43:49Z</time>
      </trkpt>
      <trkpt lat="44.27313" lon="4.21185">
        <ele>248.16</ele>
        <time>2025-10-14T12:43:53Z</time>
      </trkpt>
      <trkpt lat="44.27313" lon="4.21185">
        <ele>246.23</ele>
        <time>2025-10-14T12:43:55Z</time>
      </trkpt>
      <trkpt lat="44.27308" lon="4.21186">
        <ele>247.2</ele>
        <time>2025-10-14T12:44:00Z</time>
      </trkpt>
      <trkpt lat="44.27306" lon="4.21187">
        <ele>246.23</ele>
        <time>2025-10-14T12:44:02Z</time>
      </trkpt>
      <trkpt lat="44.27301" lon="4.21188">
        <ele>247.68</ele>
        <time>2025-10-14T12:44:07Z</time>
      </trkpt>
      <trkpt lat="44.273" lon="4.21189">
        <ele>247.68</ele>
        <time>2025-10-14T12:44:08Z</time>
      </trkpt>
      <trkpt lat="44.27293" lon="4.21197">
        <ele>248.16</ele>
        <time>2025-10-14T12:44:17Z</time>
      </trkpt>
      <trkpt lat="44.27276" lon="4.21209">
        <ele>247.68</ele>
        <time>2025-10-14T12:44:35Z</time>
      </trkpt>
      <trkpt lat="44.27266" lon="4.21214">
        <ele>246.72</ele>
        <time>2025-10-14T12:44:52Z</time>
      </trkpt>
      <trkpt lat="44.27264" lon="4.21216">
        <ele>248.16</ele>
        <time>2025-10-14T12:44:55Z</time>
      </trkpt>
      <trkpt lat="44.27254" lon="4.21222">
        <ele>247.68</ele>
        <time>2025-10-14T12:45:10Z</time>
      </trkpt>
      <trkpt lat="44.2724" lon="4.21231">
        <ele>250.08</ele>
        <time>2025-10-14T12:45:28Z</time>
      </trkpt>
      <trkpt lat="44.27228" lon="4.21238">
        <ele>250.08</ele>
        <time>2025-10-14T12:45:44Z</time>
      </trkpt>
      <trkpt lat="44.27221" lon="4.21242">
        <ele>253.44</ele>
        <time>2025-10-14T12:45:51Z</time>
      </trkpt>
      <trkpt lat="44.27219" lon="4.21245">
        <ele>248.64</ele>
        <time>2025-10-14T12:45:55Z</time>
      </trkpt>
      <trkpt lat="44.27219" lon="4.21245">
        <ele>254.41</ele>
        <time>2025-10-14T12:45:56Z</time>
      </trkpt>
      <trkpt lat="44.27218" lon="4.21245">
        <ele>251.04</ele>
        <time>2025-10-14T12:45:58Z</time>
      </trkpt>
      <trkpt lat="44.27218" lon="4.21246">
        <ele>251.52</ele>
        <time>2025-10-14T12:46:02Z</time>
      </trkpt>
      <trkpt lat="44.27215" lon="4.21248">
        <ele>253.44</ele>
        <time>2025-10-14T12:46:23Z</time>
      </trkpt>
      <trkpt lat="44.27214" lon="4.21248">
        <ele>253.44</ele>
        <time>2025-10-14T12:46:24Z</time>
      </trkpt>
      <trkpt lat="44.27198" lon="4.21256">
        <ele>254.41</ele>
        <time>2025-10-14T12:46:40Z</time>
      </trkpt>
      <trkpt lat="44.27182" lon="4.21262">
        <ele>255.85</ele>
        <time>2025-10-14T12:46:56Z</time>
      </trkpt>
      <trkpt lat="44.27179" lon="4.21264">
        <ele>255.37</ele>
        <time>2025-10-14T12:47:02Z</time>
      </trkpt>
      <trkpt lat="44.27174" lon="4.21265">
        <ele>256.81</ele>
        <time>2025-10-14T12:47:18Z</time>
      </trkpt>
      <trkpt lat="44.27173" lon="4.21267">
        <ele>255.37</ele>
        <time>2025-10-14T12:47:20Z</time>
      </trkpt>
      <trkpt lat="44.2717" lon="4.21273">
        <ele>256.33</ele>
        <time>2025-10-14T12:47:37Z</time>
      </trkpt>
      <trkpt lat="44.2717" lon="4.21275">
        <ele>256.33</ele>
        <time>2025-10-14T12:48:05Z</time>
      </trkpt>
      <trkpt lat="44.27168" lon="4.21278">
        <ele>258.25</ele>
        <time>2025-10-14T12:48:26Z</time>
      </trkpt>
      <trkpt lat="44.27167" lon="4.21278">
        <ele>256.81</ele>
        <time>2025-10-14T12:48:33Z</time>
      </trkpt>
      <trkpt lat="44.27161" lon="4.21286">
        <ele>258.25</ele>
        <time>2025-10-14T12:48:47Z</time>
      </trkpt>
      <trkpt lat="44.27159" lon="4.21288">
        <ele>258.73</ele>
        <time>2025-10-14T12:49:19Z</time>
      </trkpt>
      <trkpt lat="44.2716" lon="4.21286">
        <ele>260.17</ele>
        <time>2025-10-14T12:49:44Z</time>
      </trkpt>
      <trkpt lat="44.27158" lon="4.21289">
        <ele>258.25</ele>
        <time>2025-10-14T12:50:12Z</time>
      </trkpt>
      <trkpt lat="44.27158" lon="4.21289">
        <ele>261.62</ele>
        <time>2025-10-14T12:50:13Z</time>
      </trkpt>
      <trkpt lat="44.27158" lon="4.2129">
        <ele>260.17</ele>
        <time>2025-10-14T12:50:14Z</time>
      </trkpt>
      <trkpt lat="44.27146" lon="4.21304">
        <ele>262.1</ele>
        <time>2025-10-14T12:50:34Z</time>
      </trkpt>
      <trkpt lat="44.27137" lon="4.21312">
        <ele>260.17</ele>
        <time>2025-10-14T12:50:48Z</time>
      </trkpt>
      <trkpt lat="44.27134" lon="4.21315">
        <ele>261.62</ele>
        <time>2025-10-14T12:50:52Z</time>
      </trkpt>
      <trkpt lat="44.27129" lon="4.21329">
        <ele>260.65</ele>
        <time>2025-10-14T12:51:07Z</time>
      </trkpt>
      <trkpt lat="44.27125" lon="4.21336">
        <ele>261.62</ele>
        <time>2025-10-14T12:51:14Z</time>
      </trkpt>
      <trkpt lat="44.27122" lon="4.21342">
        <ele>260.17</ele>
        <time>2025-10-14T12:51:21Z</time>
      </trkpt>
      <trkpt lat="44.2712" lon="4.21345">
        <ele>261.62</ele>
        <time>2025-10-14T12:51:24Z</time>
      </trkpt>
      <trkpt lat="44.27119" lon="4.21348">
        <ele>260.17</ele>
        <time>2025-10-14T12:51:27Z</time>
      </trkpt>
      <trkpt lat="44.27107" lon="4.21367">
        <ele>258.73</ele>
        <time>2025-10-14T12:51:45Z</time>
      </trkpt>
      <trkpt lat="44.27106" lon="4.21369">
        <ele>260.17</ele>
        <time>2025-10-14T12:51:47Z</time>
      </trkpt>
      <trkpt lat="44.27106" lon="4.21371">
        <ele>258.73</ele>
        <time>2025-10-14T12:51:49Z</time>
      </trkpt>
      <trkpt lat="44.27097" lon="4.21383">
        <ele>258.25</ele>
        <time>2025-10-14T12:52:03Z</time>
      </trkpt>
      <trkpt lat="44.27088" lon="4.21392">
        <ele>259.21</ele>
        <time>2025-10-14T12:52:16Z</time>
      </trkpt>
      <trkpt lat="44.27073" lon="4.21407">
        <ele>258.25</ele>
        <time>2025-10-14T12:52:34Z</time>
      </trkpt>
      <trkpt lat="44.27059" lon="4.2142">
        <ele>257.29</ele>
        <time>2025-10-14T12:52:51Z</time>
      </trkpt>
      <trkpt lat="44.27046" lon="4.21433">
        <ele>257.77</ele>
        <time>2025-10-14T12:53:07Z</time>
      </trkpt>
      <trkpt lat="44.27032" lon="4.21445">
        <ele>255.85</ele>
        <time>2025-10-14T12:53:24Z</time>
      </trkpt>
      <trkpt lat="44.27023" lon="4.21453">
        <ele>256.33</ele>
        <time>2025-10-14T12:53:38Z</time>
      </trkpt>
      <trkpt lat="44.27022" lon="4.21454">
        <ele>254.41</ele>
        <time>2025-10-14T12:53:40Z</time>
      </trkpt>
      <trkpt lat="44.27019" lon="4.21458">
        <ele>254.41</ele>
        <time>2025-10-14T12:53:46Z</time>
      </trkpt>
      <trkpt lat="44.27011" lon="4.21468">
        <ele>252</ele>
        <time>2025-10-14T12:54:05Z</time>
      </trkpt>
      <trkpt lat="44.27005" lon="4.21479">
        <ele>250.08</ele>
        <time>2025-10-14T12:54:25Z</time>
      </trkpt>
      <trkpt lat="44.27002" lon="4.21482">
        <ele>248.64</ele>
        <time>2025-10-14T12:54:32Z</time>
      </trkpt>
      <trkpt lat="44.27001" lon="4.21484">
        <ele>249.6</ele>
        <time>2025-10-14T12:54:34Z</time>
      </trkpt>
      <trkpt lat="44.26993" lon="4.21495">
        <ele>246.23</ele>
        <time>2025-10-14T12:54:50Z</time>
      </trkpt>
      <trkpt lat="44.26983" lon="4.21508">
        <ele>244.31</ele>
        <time>2025-10-14T12:55:05Z</time>
      </trkpt>
      <trkpt lat="44.26975" lon="4.21518">
        <ele>241.43</ele>
        <time>2025-10-14T12:55:24Z</time>
      </trkpt>
      <trkpt lat="44.26962" lon="4.21534">
        <ele>239.51</ele>
        <time>2025-10-14T12:55:43Z</time>
      </trkpt>
      <trkpt lat="44.26954" lon="4.21544">
        <ele>236.14</ele>
        <time>2025-10-14T12:55:58Z</time>
      </trkpt>
      <trkpt lat="44.26953" lon="4.21544">
        <ele>239.51</ele>
        <time>2025-10-14T12:55:59Z</time>
      </trkpt>
      <trkpt lat="44.26951" lon="4.21542">
        <ele>237.58</ele>
        <time>2025-10-14T12:56:06Z</time>
      </trkpt>
      <trkpt lat="44.26951" lon="4.21541">
        <ele>239.02</ele>
        <time>2025-10-14T12:56:08Z</time>
      </trkpt>
      <trkpt lat="44.26947" lon="4.2154">
        <ele>239.02</ele>
        <time>2025-10-14T12:56:22Z</time>
      </trkpt>
      <trkpt lat="44.26946" lon="4.21538">
        <ele>237.58</ele>
        <time>2025-10-14T12:56:26Z</time>
      </trkpt>
      <trkpt lat="44.26942" lon="4.21536">
        <ele>239.51</ele>
        <time>2025-10-14T12:56:44Z</time>
      </trkpt>
      <trkpt lat="44.26942" lon="4.21536">
        <ele>239.51</ele>
        <time>2025-10-14T12:56:52Z</time>
      </trkpt>
      <trkpt lat="44.26942" lon="4.21536">
        <ele>236.62</ele>
        <time>2025-10-14T12:56:53Z</time>
      </trkpt>
      <trkpt lat="44.26942" lon="4.21536">
        <ele>237.58</ele>
        <time>2025-10-14T12:57:17Z</time>
      </trkpt>
      <trkpt lat="44.26942" lon="4.21535">
        <ele>239.02</ele>
        <time>2025-10-14T12:57:46Z</time>
      </trkpt>
      <trkpt lat="44.26942" lon="4.21536">
        <ele>239.51</ele>
        <time>2025-10-14T12:58:13Z</time>
      </trkpt>
      <trkpt lat="44.26943" lon="4.21536">
        <ele>239.02</ele>
        <time>2025-10-14T12:58:38Z</time>
      </trkpt>
      <trkpt lat="44.26939" lon="4.21536">
        <ele>239.99</ele>
        <time>2025-10-14T12:59:04Z</time>
      </trkpt>
      <trkpt lat="44.26939" lon="4.21535">
        <ele>239.99</ele>
        <time>2025-10-14T12:59:41Z</time>
      </trkpt>
      <trkpt lat="44.26948" lon="4.21539">
        <ele>239.02</ele>
        <time>2025-10-14T12:59:58Z</time>
      </trkpt>
      <trkpt lat="44.26948" lon="4.21539">
        <ele>240.95</ele>
        <time>2025-10-14T13:00:00Z</time>
      </trkpt>
      <trkpt lat="44.26948" lon="4.21539">
        <ele>240.95</ele>
        <time>2025-10-14T13:00:24Z</time>
      </trkpt>
      <trkpt lat="44.26951" lon="4.21542">
        <ele>240.95</ele>
        <time>2025-10-14T13:00:35Z</time>
      </trkpt>
      <trkpt lat="44.26952" lon="4.21544">
        <ele>239.99</ele>
        <time>2025-10-14T13:00:38Z</time>
      </trkpt>
      <trkpt lat="44.26952" lon="4.21545">
        <ele>241.43</ele>
        <time>2025-10-14T13:00:40Z</time>
      </trkpt>
      <trkpt lat="44.26948" lon="4.21555">
        <ele>239.02</ele>
        <time>2025-10-14T13:00:58Z</time>
      </trkpt>
      <trkpt lat="44.26938" lon="4.21569">
        <ele>238.06</ele>
        <time>2025-10-14T13:01:16Z</time>
      </trkpt>
      <trkpt lat="44.26937" lon="4.2157">
        <ele>238.06</ele>
        <time>2025-10-14T13:01:17Z</time>
      </trkpt>
      <trkpt lat="44.26928" lon="4.21589">
        <ele>235.66</ele>
        <time>2025-10-14T13:01:36Z</time>
      </trkpt>
      <trkpt lat="44.26918" lon="4.216">
        <ele>235.18</ele>
        <time>2025-10-14T13:01:49Z</time>
      </trkpt>
      <trkpt lat="44.26914" lon="4.21603">
        <ele>234.7</ele>
        <time>2025-10-14T13:01:53Z</time>
      </trkpt>
      <trkpt lat="44.26901" lon="4.21619">
        <ele>233.26</ele>
        <time>2025-10-14T13:02:11Z</time>
      </trkpt>
      <trkpt lat="44.26887" lon="4.21635">
        <ele>232.78</ele>
        <time>2025-10-14T13:02:29Z</time>
      </trkpt>
      <trkpt lat="44.26885" lon="4.21637">
        <ele>234.7</ele>
        <time>2025-10-14T13:02:31Z</time>
      </trkpt>
      <trkpt lat="44.2688" lon="4.21641">
        <ele>233.26</ele>
        <time>2025-10-14T13:02:36Z</time>
      </trkpt>
      <trkpt lat="44.26862" lon="4.21652">
        <ele>233.26</ele>
        <time>2025-10-14T13:02:55Z</time>
      </trkpt>
      <trkpt lat="44.2686" lon="4.21653">
        <ele>235.18</ele>
        <time>2025-10-14T13:02:57Z</time>
      </trkpt>
      <trkpt lat="44.26853" lon="4.21658">
        <ele>235.66</ele>
        <time>2025-10-14T13:03:04Z</time>
      </trkpt>
      <trkpt lat="44.26851" lon="4.21658">
        <ele>234.22</ele>
        <time>2025-10-14T13:03:06Z</time>
      </trkpt>
      <trkpt lat="44.26834" lon="4.21662">
        <ele>234.22</ele>
        <time>2025-10-14T13:03:24Z</time>
      </trkpt>
      <trkpt lat="44.26829" lon="4.21665">
        <ele>230.85</ele>
        <time>2025-10-14T13:03:42Z</time>
      </trkpt>
      <trkpt lat="44.26828" lon="4.21665">
        <ele>235.18</ele>
        <time>2025-10-14T13:03:43Z</time>
      </trkpt>
      <trkpt lat="44.26824" lon="4.21667">
        <ele>233.74</ele>
        <time>2025-10-14T13:03:48Z</time>
      </trkpt>
      <trkpt lat="44.26808" lon="4.21676">
        <ele>232.3</ele>
        <time>2025-10-14T13:04:06Z</time>
      </trkpt>
      <trkpt lat="44.26792" lon="4.21686">
        <ele>229.89</ele>
        <time>2025-10-14T13:04:24Z</time>
      </trkpt>
      <trkpt lat="44.26773" lon="4.21689">
        <ele>227.01</ele>
        <time>2025-10-14T13:04:46Z</time>
      </trkpt>
      <trkpt lat="44.26764" lon="4.21693">
        <ele>224.61</ele>
        <time>2025-10-14T13:04:55Z</time>
      </trkpt>
      <trkpt lat="44.26756" lon="4.21697">
        <ele>224.12</ele>
        <time>2025-10-14T13:05:03Z</time>
      </trkpt>
      <trkpt lat="44.2674" lon="4.2171">
        <ele>221.72</ele>
        <time>2025-10-14T13:05:21Z</time>
      </trkpt>
      <trkpt lat="44.2672" lon="4.21723">
        <ele>220.28</ele>
        <time>2025-10-14T13:05:39Z</time>
      </trkpt>
      <trkpt lat="44.26716" lon="4.21728">
        <ele>221.24</ele>
        <time>2025-10-14T13:05:44Z</time>
      </trkpt>
      <trkpt lat="44.26709" lon="4.21734">
        <ele>222.2</ele>
        <time>2025-10-14T13:05:51Z</time>
      </trkpt>
      <trkpt lat="44.26707" lon="4.21736">
        <ele>221.24</ele>
        <time>2025-10-14T13:05:53Z</time>
      </trkpt>
      <trkpt lat="44.26704" lon="4.21739">
        <ele>222.68</ele>
        <time>2025-10-14T13:05:57Z</time>
      </trkpt>
      <trkpt lat="44.26697" lon="4.21744">
        <ele>223.64</ele>
        <time>2025-10-14T13:06:04Z</time>
      </trkpt>
      <trkpt lat="44.26695" lon="4.21745">
        <ele>222.2</ele>
        <time>2025-10-14T13:06:06Z</time>
      </trkpt>
      <trkpt lat="44.26685" lon="4.21752">
        <ele>224.12</ele>
        <time>2025-10-14T13:06:16Z</time>
      </trkpt>
      <trkpt lat="44.2668" lon="4.21757">
        <ele>222.2</ele>
        <time>2025-10-14T13:06:21Z</time>
      </trkpt>
      <trkpt lat="44.26678" lon="4.21758">
        <ele>224.12</ele>
        <time>2025-10-14T13:06:23Z</time>
      </trkpt>
      <trkpt lat="44.26675" lon="4.21762">
        <ele>222.68</ele>
        <time>2025-10-14T13:06:27Z</time>
      </trkpt>
      <trkpt lat="44.26672" lon="4.21764">
        <ele>224.12</ele>
        <time>2025-10-14T13:06:30Z</time>
      </trkpt>
      <trkpt lat="44.26655" lon="4.21779">
        <ele>224.12</ele>
        <time>2025-10-14T13:06:48Z</time>
      </trkpt>
      <trkpt lat="44.26652" lon="4.21781">
        <ele>222.2</ele>
        <time>2025-10-14T13:06:51Z</time>
      </trkpt>
      <trkpt lat="44.26643" lon="4.21791">
        <ele>220.76</ele>
        <time>2025-10-14T13:07:05Z</time>
      </trkpt>
      <trkpt lat="44.26634" lon="4.21798">
        <ele>218.84</ele>
        <time>2025-10-14T13:07:22Z</time>
      </trkpt>
      <trkpt lat="44.26632" lon="4.218">
        <ele>217.88</ele>
        <time>2025-10-14T13:07:25Z</time>
      </trkpt>
      <trkpt lat="44.26631" lon="4.21801">
        <ele>220.28</ele>
        <time>2025-10-14T13:07:27Z</time>
      </trkpt>
      <trkpt lat="44.26631" lon="4.21802">
        <ele>218.84</ele>
        <time>2025-10-14T13:07:29Z</time>
      </trkpt>
      <trkpt lat="44.26631" lon="4.21802">
        <ele>220.28</ele>
        <time>2025-10-14T13:07:32Z</time>
      </trkpt>
      <trkpt lat="44.26629" lon="4.21802">
        <ele>217.88</ele>
        <time>2025-10-14T13:07:34Z</time>
      </trkpt>
      <trkpt lat="44.26626" lon="4.21807">
        <ele>217.88</ele>
        <time>2025-10-14T13:07:51Z</time>
      </trkpt>
      <trkpt lat="44.26617" lon="4.21813">
        <ele>216.43</ele>
        <time>2025-10-14T13:08:08Z</time>
      </trkpt>
      <trkpt lat="44.26607" lon="4.2182">
        <ele>214.99</ele>
        <time>2025-10-14T13:08:24Z</time>
      </trkpt>
      <trkpt lat="44.26604" lon="4.21821">
        <ele>215.95</ele>
        <time>2025-10-14T13:08:35Z</time>
      </trkpt>
      <trkpt lat="44.26604" lon="4.2182">
        <ele>215.95</ele>
        <time>2025-10-14T13:08:41Z</time>
      </trkpt>
      <trkpt lat="44.26604" lon="4.2182">
        <ele>214.03</ele>
        <time>2025-10-14T13:08:43Z</time>
      </trkpt>
      <trkpt lat="44.26604" lon="4.21818">
        <ele>215.95</ele>
        <time>2025-10-14T13:09:03Z</time>
      </trkpt>
      <trkpt lat="44.26604" lon="4.2182">
        <ele>214.99</ele>
        <time>2025-10-14T13:09:08Z</time>
      </trkpt>
      <trkpt lat="44.26604" lon="4.21821">
        <ele>216.91</ele>
        <time>2025-10-14T13:09:13Z</time>
      </trkpt>
      <trkpt lat="44.26603" lon="4.21822">
        <ele>214.99</ele>
        <time>2025-10-14T13:09:16Z</time>
      </trkpt>
      <trkpt lat="44.26592" lon="4.21832">
        <ele>213.55</ele>
        <time>2025-10-14T13:09:33Z</time>
      </trkpt>
      <trkpt lat="44.26591" lon="4.21832">
        <ele>213.55</ele>
        <time>2025-10-14T13:09:34Z</time>
      </trkpt>
      <trkpt lat="44.26589" lon="4.21833">
        <ele>215.47</ele>
        <time>2025-10-14T13:09:36Z</time>
      </trkpt>
      <trkpt lat="44.26577" lon="4.21842">
        <ele>214.99</ele>
        <time>2025-10-14T13:09:52Z</time>
      </trkpt>
      <trkpt lat="44.26575" lon="4.21843">
        <ele>214.03</ele>
        <time>2025-10-14T13:09:54Z</time>
      </trkpt>
      <trkpt lat="44.26566" lon="4.2185">
        <ele>215.47</ele>
        <time>2025-10-14T13:10:04Z</time>
      </trkpt>
      <trkpt lat="44.26563" lon="4.21853">
        <ele>214.03</ele>
        <time>2025-10-14T13:10:07Z</time>
      </trkpt>
      <trkpt lat="44.26554" lon="4.21861">
        <ele>213.07</ele>
        <time>2025-10-14T13:10:17Z</time>
      </trkpt>
      <trkpt lat="44.26545" lon="4.21867">
        <ele>214.51</ele>
        <time>2025-10-14T13:10:27Z</time>
      </trkpt>
      <trkpt lat="44.26542" lon="4.2187">
        <ele>212.59</ele>
        <time>2025-10-14T13:10:30Z</time>
      </trkpt>
      <trkpt lat="44.26539" lon="4.21872">
        <ele>213.55</ele>
        <time>2025-10-14T13:10:33Z</time>
      </trkpt>
      <trkpt lat="44.26533" lon="4.21886">
        <ele>212.11</ele>
        <time>2025-10-14T13:10:45Z</time>
      </trkpt>
      <trkpt lat="44.2653" lon="4.21911">
        <ele>213.07</ele>
        <time>2025-10-14T13:11:03Z</time>
      </trkpt>
      <trkpt lat="44.26529" lon="4.21915">
        <ele>211.15</ele>
        <time>2025-10-14T13:11:11Z</time>
      </trkpt>
      <trkpt lat="44.26529" lon="4.2192">
        <ele>212.11</ele>
        <time>2025-10-14T13:11:17Z</time>
      </trkpt>
      <trkpt lat="44.26527" lon="4.21937">
        <ele>211.15</ele>
        <time>2025-10-14T13:11:34Z</time>
      </trkpt>
      <trkpt lat="44.26527" lon="4.21938">
        <ele>211.15</ele>
        <time>2025-10-14T13:11:35Z</time>
      </trkpt>
      <trkpt lat="44.26527" lon="4.21946">
        <ele>212.59</ele>
        <time>2025-10-14T13:11:41Z</time>
      </trkpt>
      <trkpt lat="44.26526" lon="4.21963">
        <ele>210.19</ele>
        <time>2025-10-14T13:11:57Z</time>
      </trkpt>
      <trkpt lat="44.26524" lon="4.2198">
        <ele>209.7</ele>
        <time>2025-10-14T13:12:12Z</time>
      </trkpt>
      <trkpt lat="44.26519" lon="4.21994">
        <ele>209.7</ele>
        <time>2025-10-14T13:12:25Z</time>
      </trkpt>
      <trkpt lat="44.26508" lon="4.21999">
        <ele>210.67</ele>
        <time>2025-10-14T13:12:41Z</time>
      </trkpt>
      <trkpt lat="44.26503" lon="4.22001">
        <ele>209.22</ele>
        <time>2025-10-14T13:12:55Z</time>
      </trkpt>
      <trkpt lat="44.26503" lon="4.22002">
        <ele>210.67</ele>
        <time>2025-10-14T13:12:59Z</time>
      </trkpt>
      <trkpt lat="44.26502" lon="4.22">
        <ele>207.3</ele>
        <time>2025-10-14T13:13:06Z</time>
      </trkpt>
      <trkpt lat="44.26501" lon="4.21999">
        <ele>211.63</ele>
        <time>2025-10-14T13:13:07Z</time>
      </trkpt>
      <trkpt lat="44.265" lon="4.21998">
        <ele>211.15</ele>
        <time>2025-10-14T13:13:10Z</time>
      </trkpt>
      <trkpt lat="44.26495" lon="4.21994">
        <ele>211.15</ele>
        <time>2025-10-14T13:13:16Z</time>
      </trkpt>
      <trkpt lat="44.26493" lon="4.21993">
        <ele>210.19</ele>
        <time>2025-10-14T13:13:18Z</time>
      </trkpt>
      <trkpt lat="44.26491" lon="4.21991">
        <ele>211.63</ele>
        <time>2025-10-14T13:13:21Z</time>
      </trkpt>
      <trkpt lat="44.26489" lon="4.2199">
        <ele>210.19</ele>
        <time>2025-10-14T13:13:23Z</time>
      </trkpt>
      <trkpt lat="44.26487" lon="4.21988">
        <ele>209.7</ele>
        <time>2025-10-14T13:13:29Z</time>
      </trkpt>
      <trkpt lat="44.26486" lon="4.21986">
        <ele>211.15</ele>
        <time>2025-10-14T13:13:32Z</time>
      </trkpt>
      <trkpt lat="44.26485" lon="4.21982">
        <ele>209.22</ele>
        <time>2025-10-14T13:13:35Z</time>
      </trkpt>
      <trkpt lat="44.26485" lon="4.2198">
        <ele>210.67</ele>
        <time>2025-10-14T13:13:37Z</time>
      </trkpt>
      <trkpt lat="44.26482" lon="4.21958">
        <ele>209.7</ele>
        <time>2025-10-14T13:13:55Z</time>
      </trkpt>
      <trkpt lat="44.26482" lon="4.21956">
        <ele>208.26</ele>
        <time>2025-10-14T13:13:57Z</time>
      </trkpt>
      <trkpt lat="44.26481" lon="4.21934">
        <ele>206.34</ele>
        <time>2025-10-14T13:14:15Z</time>
      </trkpt>
      <trkpt lat="44.2648" lon="4.21932">
        <ele>208.26</ele>
        <time>2025-10-14T13:14:17Z</time>
      </trkpt>
      <trkpt lat="44.26479" lon="4.2193">
        <ele>206.82</ele>
        <time>2025-10-14T13:14:19Z</time>
      </trkpt>
      <trkpt lat="44.26467" lon="4.21933">
        <ele>204.9</ele>
        <time>2025-10-14T13:14:33Z</time>
      </trkpt>
      <trkpt lat="44.26463" lon="4.21936">
        <ele>204.9</ele>
        <time>2025-10-14T13:14:38Z</time>
      </trkpt>
      <trkpt lat="44.26448" lon="4.2195">
        <ele>205.38</ele>
        <time>2025-10-14T13:14:56Z</time>
      </trkpt>
      <trkpt lat="44.26437" lon="4.21961">
        <ele>204.9</ele>
        <time>2025-10-14T13:15:10Z</time>
      </trkpt>
      <trkpt lat="44.26435" lon="4.21962">
        <ele>203.46</ele>
        <time>2025-10-14T13:15:13Z</time>
      </trkpt>
      <trkpt lat="44.2643" lon="4.21964">
        <ele>205.86</ele>
        <time>2025-10-14T13:15:18Z</time>
      </trkpt>
      <trkpt lat="44.26416" lon="4.21968">
        <ele>205.38</ele>
        <time>2025-10-14T13:15:35Z</time>
      </trkpt>
      <trkpt lat="44.26412" lon="4.21967">
        <ele>206.34</ele>
        <time>2025-10-14T13:15:39Z</time>
      </trkpt>
      <trkpt lat="44.26409" lon="4.21966">
        <ele>204.9</ele>
        <time>2025-10-14T13:15:42Z</time>
      </trkpt>
      <trkpt lat="44.26407" lon="4.21966">
        <ele>206.82</ele>
        <time>2025-10-14T13:15:44Z</time>
      </trkpt>
      <trkpt lat="44.26397" lon="4.21967">
        <ele>205.86</ele>
        <time>2025-10-14T13:15:55Z</time>
      </trkpt>
      <trkpt lat="44.26388" lon="4.21974">
        <ele>205.86</ele>
        <time>2025-10-14T13:16:06Z</time>
      </trkpt>
      <trkpt lat="44.26386" lon="4.21977">
        <ele>204.42</ele>
        <time>2025-10-14T13:16:09Z</time>
      </trkpt>
      <trkpt lat="44.26372" lon="4.21994">
        <ele>202.98</ele>
        <time>2025-10-14T13:16:29Z</time>
      </trkpt>
      <trkpt lat="44.26365" lon="4.22013">
        <ele>200.57</ele>
        <time>2025-10-14T13:16:47Z</time>
      </trkpt>
      <trkpt lat="44.26361" lon="4.2203">
        <ele>201.05</ele>
        <time>2025-10-14T13:17:03Z</time>
      </trkpt>
      <trkpt lat="44.26357" lon="4.22042">
        <ele>199.13</ele>
        <time>2025-10-14T13:17:16Z</time>
      </trkpt>
      <trkpt lat="44.26357" lon="4.22047">
        <ele>199.61</ele>
        <time>2025-10-14T13:17:29Z</time>
      </trkpt>
      <trkpt lat="44.26357" lon="4.22047">
        <ele>194.32</ele>
        <time>2025-10-14T13:17:32Z</time>
      </trkpt>
      <trkpt lat="44.26357" lon="4.22048">
        <ele>199.13</ele>
        <time>2025-10-14T13:17:33Z</time>
      </trkpt>
      <trkpt lat="44.26357" lon="4.22049">
        <ele>195.28</ele>
        <time>2025-10-14T13:17:41Z</time>
      </trkpt>
      <trkpt lat="44.26357" lon="4.22049">
        <ele>199.13</ele>
        <time>2025-10-14T13:17:42Z</time>
      </trkpt>
      <trkpt lat="44.26358" lon="4.2205">
        <ele>203.46</ele>
        <time>2025-10-14T13:17:46Z</time>
      </trkpt>
      <trkpt lat="44.26357" lon="4.2205">
        <ele>203.46</ele>
        <time>2025-10-14T13:17:47Z</time>
      </trkpt>
      <trkpt lat="44.26356" lon="4.2205">
        <ele>199.61</ele>
        <time>2025-10-14T13:17:48Z</time>
      </trkpt>
      <trkpt lat="44.26356" lon="4.2205">
        <ele>199.61</ele>
        <time>2025-10-14T13:17:49Z</time>
      </trkpt>
      <trkpt lat="44.2635" lon="4.22066">
        <ele>196.73</ele>
        <time>2025-10-14T13:18:07Z</time>
      </trkpt>
      <trkpt lat="44.26344" lon="4.22088">
        <ele>195.28</ele>
        <time>2025-10-14T13:18:24Z</time>
      </trkpt>
      <trkpt lat="44.26343" lon="4.22092">
        <ele>195.28</ele>
        <time>2025-10-14T13:18:27Z</time>
      </trkpt>
      <trkpt lat="44.26337" lon="4.2212">
        <ele>193.84</ele>
        <time>2025-10-14T13:18:46Z</time>
      </trkpt>
      <trkpt lat="44.26327" lon="4.22144">
        <ele>193.84</ele>
        <time>2025-10-14T13:19:05Z</time>
      </trkpt>
      <trkpt lat="44.26316" lon="4.22161">
        <ele>194.8</ele>
        <time>2025-10-14T13:19:21Z</time>
      </trkpt>
      <trkpt lat="44.26311" lon="4.22165">
        <ele>195.28</ele>
        <time>2025-10-14T13:19:36Z</time>
      </trkpt>
      <trkpt lat="44.26311" lon="4.22165">
        <ele>191.92</ele>
        <time>2025-10-14T13:19:39Z</time>
      </trkpt>
      <trkpt lat="44.2631" lon="4.22166">
        <ele>195.77</ele>
        <time>2025-10-14T13:19:41Z</time>
      </trkpt>
      <trkpt lat="44.2631" lon="4.22166">
        <ele>193.84</ele>
        <time>2025-10-14T13:19:44Z</time>
      </trkpt>
      <trkpt lat="44.2631" lon="4.22167">
        <ele>194.8</ele>
        <time>2025-10-14T13:19:53Z</time>
      </trkpt>
      <trkpt lat="44.26308" lon="4.22174">
        <ele>193.84</ele>
        <time>2025-10-14T13:19:59Z</time>
      </trkpt>
      <trkpt lat="44.26303" lon="4.22176">
        <ele>195.28</ele>
        <time>2025-10-14T13:20:04Z</time>
      </trkpt>
      <trkpt lat="44.26285" lon="4.2218">
        <ele>192.4</ele>
        <time>2025-10-14T13:20:22Z</time>
      </trkpt>
      <trkpt lat="44.26282" lon="4.2218">
        <ele>193.84</ele>
        <time>2025-10-14T13:20:24Z</time>
      </trkpt>
      <trkpt lat="44.26278" lon="4.22181">
        <ele>192.4</ele>
        <time>2025-10-14T13:20:28Z</time>
      </trkpt>
      <trkpt lat="44.26253" lon="4.22186">
        <ele>192.4</ele>
        <time>2025-10-14T13:20:47Z</time>
      </trkpt>
      <trkpt lat="44.26229" lon="4.2219">
        <ele>191.44</ele>
        <time>2025-10-14T13:21:06Z</time>
      </trkpt>
      <trkpt lat="44.26208" lon="4.22193">
        <ele>190.48</ele>
        <time>2025-10-14T13:21:23Z</time>
      </trkpt>
      <trkpt lat="44.26198" lon="4.22204">
        <ele>190.48</ele>
        <time>2025-10-14T13:21:40Z</time>
      </trkpt>
      <trkpt lat="44.26198" lon="4.22204">
        <ele>189.04</ele>
        <time>2025-10-14T13:21:45Z</time>
      </trkpt>
      <trkpt lat="44.26198" lon="4.22204">
        <ele>190.96</ele>
        <time>2025-10-14T13:21:47Z</time>
      </trkpt>
      <trkpt lat="44.26198" lon="4.22204">
        <ele>189.52</ele>
        <time>2025-10-14T13:21:51Z</time>
      </trkpt>
      <trkpt lat="44.26197" lon="4.22205">
        <ele>190.48</ele>
        <time>2025-10-14T13:22:15Z</time>
      </trkpt>
      <trkpt lat="44.26198" lon="4.22208">
        <ele>190.96</ele>
        <time>2025-10-14T13:22:34Z</time>
      </trkpt>
      <trkpt lat="44.26198" lon="4.22209">
        <ele>189.52</ele>
        <time>2025-10-14T13:22:46Z</time>
      </trkpt>
      <trkpt lat="44.26197" lon="4.22209">
        <ele>189.52</ele>
        <time>2025-10-14T13:23:06Z</time>
      </trkpt>
      <trkpt lat="44.26196" lon="4.22208">
        <ele>186.15</ele>
        <time>2025-10-14T13:23:18Z</time>
      </trkpt>
      <trkpt lat="44.26196" lon="4.22208">
        <ele>192.4</ele>
        <time>2025-10-14T13:23:19Z</time>
      </trkpt>
      <trkpt lat="44.26198" lon="4.22208">
        <ele>188.56</ele>
        <time>2025-10-14T13:23:30Z</time>
      </trkpt>
      <trkpt lat="44.26198" lon="4.22208">
        <ele>191.92</ele>
        <time>2025-10-14T13:23:31Z</time>
      </trkpt>
      <trkpt lat="44.26198" lon="4.22209">
        <ele>189.04</ele>
        <time>2025-10-14T13:23:36Z</time>
      </trkpt>
      <trkpt lat="44.26197" lon="4.2221">
        <ele>189.52</ele>
        <time>2025-10-14T13:23:41Z</time>
      </trkpt>
      <trkpt lat="44.26197" lon="4.22208">
        <ele>189.04</ele>
        <time>2025-10-14T13:23:49Z</time>
      </trkpt>
      <trkpt lat="44.26196" lon="4.22208">
        <ele>190.48</ele>
        <time>2025-10-14T13:23:51Z</time>
      </trkpt>
      <trkpt lat="44.26195" lon="4.22208">
        <ele>189.52</ele>
        <time>2025-10-14T13:23:57Z</time>
      </trkpt>
      <trkpt lat="44.26194" lon="4.22209">
        <ele>189.04</ele>
        <time>2025-10-14T13:24:20Z</time>
      </trkpt>
      <trkpt lat="44.26195" lon="4.22209">
        <ele>189.04</ele>
        <time>2025-10-14T13:24:21Z</time>
      </trkpt>
      <trkpt lat="44.26197" lon="4.22207">
        <ele>190.96</ele>
        <time>2025-10-14T13:24:24Z</time>
      </trkpt>
      <trkpt lat="44.26198" lon="4.22204">
        <ele>189.52</ele>
        <time>2025-10-14T13:24:28Z</time>
      </trkpt>
      <trkpt lat="44.26198" lon="4.22209">
        <ele>190</ele>
        <time>2025-10-14T13:24:40Z</time>
      </trkpt>
      <trkpt lat="44.26199" lon="4.22209">
        <ele>190.96</ele>
        <time>2025-10-14T13:25:00Z</time>
      </trkpt>
      <trkpt lat="44.26201" lon="4.22212">
        <ele>190</ele>
        <time>2025-10-14T13:25:23Z</time>
      </trkpt>
      <trkpt lat="44.26201" lon="4.22212">
        <ele>192.88</ele>
        <time>2025-10-14T13:25:38Z</time>
      </trkpt>
      <trkpt lat="44.26201" lon="4.22212">
        <ele>189.52</ele>
        <time>2025-10-14T13:25:50Z</time>
      </trkpt>
      <trkpt lat="44.26197" lon="4.22211">
        <ele>190.48</ele>
        <time>2025-10-14T13:25:58Z</time>
      </trkpt>
      <trkpt lat="44.26193" lon="4.22224">
        <ele>189.52</ele>
        <time>2025-10-14T13:26:08Z</time>
      </trkpt>
      <trkpt lat="44.26193" lon="4.22231">
        <ele>188.08</ele>
        <time>2025-10-14T13:26:11Z</time>
      </trkpt>
      <trkpt lat="44.26188" lon="4.2225">
        <ele>186.63</ele>
        <time>2025-10-14T13:26:26Z</time>
      </trkpt>
      <trkpt lat="44.26187" lon="4.2225">
        <ele>186.63</ele>
        <time>2025-10-14T13:26:27Z</time>
      </trkpt>
      <trkpt lat="44.26163" lon="4.22245">
        <ele>187.11</ele>
        <time>2025-10-14T13:26:48Z</time>
      </trkpt>
      <trkpt lat="44.26146" lon="4.22237">
        <ele>184.71</ele>
        <time>2025-10-14T13:27:10Z</time>
      </trkpt>
      <trkpt lat="44.26138" lon="4.22233">
        <ele>183.27</ele>
        <time>2025-10-14T13:27:16Z</time>
      </trkpt>
      <trkpt lat="44.26118" lon="4.22224">
        <ele>182.31</ele>
        <time>2025-10-14T13:27:29Z</time>
      </trkpt>
      <trkpt lat="44.26093" lon="4.22216">
        <ele>180.87</ele>
        <time>2025-10-14T13:27:48Z</time>
      </trkpt>
      <trkpt lat="44.26063" lon="4.22204">
        <ele>178.94</ele>
        <time>2025-10-14T13:28:11Z</time>
      </trkpt>
      <trkpt lat="44.26047" lon="4.22198">
        <ele>177.02</ele>
        <time>2025-10-14T13:28:24Z</time>
      </trkpt>
      <trkpt lat="44.26024" lon="4.22188">
        <ele>175.1</ele>
        <time>2025-10-14T13:28:41Z</time>
      </trkpt>
      <trkpt lat="44.26003" lon="4.22173">
        <ele>173.66</ele>
        <time>2025-10-14T13:29:01Z</time>
      </trkpt>
      <trkpt lat="44.26" lon="4.22169">
        <ele>173.66</ele>
        <time>2025-10-14T13:29:03Z</time>
      </trkpt>
      <trkpt lat="44.25997" lon="4.22165">
        <ele>175.1</ele>
        <time>2025-10-14T13:29:06Z</time>
      </trkpt>
      <trkpt lat="44.25992" lon="4.22162">
        <ele>173.66</ele>
        <time>2025-10-14T13:29:09Z</time>
      </trkpt>
      <trkpt lat="44.25969" lon="4.22153">
        <ele>172.69</ele>
        <time>2025-10-14T13:29:27Z</time>
      </trkpt>
      <trkpt lat="44.25939" lon="4.22145">
        <ele>172.21</ele>
        <time>2025-10-14T13:29:51Z</time>
      </trkpt>
      <trkpt lat="44.25928" lon="4.2214">
        <ele>172.69</ele>
        <time>2025-10-14T13:30:00Z</time>
      </trkpt>
      <trkpt lat="44.25915" lon="4.22138">
        <ele>168.85</ele>
        <time>2025-10-14T13:30:09Z</time>
      </trkpt>
      <trkpt lat="44.25913" lon="4.22138">
        <ele>168.85</ele>
        <time>2025-10-14T13:30:10Z</time>
      </trkpt>
      <trkpt lat="44.25902" lon="4.22137">
        <ele>167.89</ele>
        <time>2025-10-14T13:30:17Z</time>
      </trkpt>
      <trkpt lat="44.25874" lon="4.22135">
        <ele>165.96</ele>
        <time>2025-10-14T13:30:38Z</time>
      </trkpt>
      <trkpt lat="44.2585" lon="4.22131">
        <ele>164.52</ele>
        <time>2025-10-14T13:30:57Z</time>
      </trkpt>
      <trkpt lat="44.25831" lon="4.22127">
        <ele>163.56</ele>
        <time>2025-10-14T13:31:14Z</time>
      </trkpt>
      <trkpt lat="44.25814" lon="4.22128">
        <ele>163.56</ele>
        <time>2025-10-14T13:31:36Z</time>
      </trkpt>
      <trkpt lat="44.25789" lon="4.22126">
        <ele>162.6</ele>
        <time>2025-10-14T13:31:54Z</time>
      </trkpt>
      <trkpt lat="44.25758" lon="4.22121">
        <ele>162.6</ele>
        <time>2025-10-14T13:32:17Z</time>
      </trkpt>
      <trkpt lat="44.25732" lon="4.22116">
        <ele>162.6</ele>
        <time>2025-10-14T13:32:37Z</time>
      </trkpt>
      <trkpt lat="44.25712" lon="4.22113">
        <ele>163.08</ele>
        <time>2025-10-14T13:32:56Z</time>
      </trkpt>
      <trkpt lat="44.25689" lon="4.22113">
        <ele>161.64</ele>
        <time>2025-10-14T13:33:17Z</time>
      </trkpt>
      <trkpt lat="44.25688" lon="4.22113">
        <ele>161.64</ele>
        <time>2025-10-14T13:33:18Z</time>
      </trkpt>
      <trkpt lat="44.25687" lon="4.22114">
        <ele>163.08</ele>
        <time>2025-10-14T13:33:20Z</time>
      </trkpt>
      <trkpt lat="44.25672" lon="4.22113">
        <ele>162.12</ele>
        <time>2025-10-14T13:33:33Z</time>
      </trkpt>
      <trkpt lat="44.25654" lon="4.22114">
        <ele>161.64</ele>
        <time>2025-10-14T13:33:49Z</time>
      </trkpt>
      <trkpt lat="44.25652" lon="4.22114">
        <ele>163.56</ele>
        <time>2025-10-14T13:33:51Z</time>
      </trkpt>
      <trkpt lat="44.25648" lon="4.22115">
        <ele>162.12</ele>
        <time>2025-10-14T13:33:55Z</time>
      </trkpt>
      <trkpt lat="44.25644" lon="4.22114">
        <ele>163.56</ele>
        <time>2025-10-14T13:33:59Z</time>
      </trkpt>
      <trkpt lat="44.25629" lon="4.22113">
        <ele>164.04</ele>
        <time>2025-10-14T13:34:12Z</time>
      </trkpt>
      <trkpt lat="44.25601" lon="4.2211">
        <ele>165</ele>
        <time>2025-10-14T13:34:34Z</time>
      </trkpt>
      <trkpt lat="44.25586" lon="4.22107">
        <ele>164.04</ele>
        <time>2025-10-14T13:34:46Z</time>
      </trkpt>
      <trkpt lat="44.25584" lon="4.22108">
        <ele>165.48</ele>
        <time>2025-10-14T13:34:48Z</time>
      </trkpt>
      <trkpt lat="44.2556" lon="4.22106">
        <ele>165.96</ele>
        <time>2025-10-14T13:35:09Z</time>
      </trkpt>
      <trkpt lat="44.25547" lon="4.22103">
        <ele>166.93</ele>
        <time>2025-10-14T13:35:22Z</time>
      </trkpt>
      <trkpt lat="44.25532" lon="4.22105">
        <ele>166.93</ele>
        <time>2025-10-14T13:35:37Z</time>
      </trkpt>
      <trkpt lat="44.25523" lon="4.22106">
        <ele>166.45</ele>
        <time>2025-10-14T13:35:57Z</time>
      </trkpt>
      <trkpt lat="44.25515" lon="4.22109">
        <ele>169.33</ele>
        <time>2025-10-14T13:36:07Z</time>
      </trkpt>
      <trkpt lat="44.25511" lon="4.2211">
        <ele>167.89</ele>
        <time>2025-10-14T13:36:10Z</time>
      </trkpt>
      <trkpt lat="44.25506" lon="4.22116">
        <ele>168.37</ele>
        <time>2025-10-14T13:36:29Z</time>
      </trkpt>
      <trkpt lat="44.25506" lon="4.22116">
        <ele>168.85</ele>
        <time>2025-10-14T13:36:45Z</time>
      </trkpt>
      <trkpt lat="44.25505" lon="4.22116">
        <ele>167.41</ele>
        <time>2025-10-14T13:36:55Z</time>
      </trkpt>
      <trkpt lat="44.25504" lon="4.22117">
        <ele>169.33</ele>
        <time>2025-10-14T13:36:57Z</time>
      </trkpt>
      <trkpt lat="44.25502" lon="4.22116">
        <ele>167.89</ele>
        <time>2025-10-14T13:36:59Z</time>
      </trkpt>
      <trkpt lat="44.25496" lon="4.22112">
        <ele>169.81</ele>
        <time>2025-10-14T13:37:16Z</time>
      </trkpt>
      <trkpt lat="44.25496" lon="4.22111">
        <ele>168.85</ele>
        <time>2025-10-14T13:37:19Z</time>
      </trkpt>
      <trkpt lat="44.25495" lon="4.22111">
        <ele>170.29</ele>
        <time>2025-10-14T13:37:24Z</time>
      </trkpt>
      <trkpt lat="44.25495" lon="4.22111">
        <ele>168.85</ele>
        <time>2025-10-14T13:37:45Z</time>
      </trkpt>
      <trkpt lat="44.25497" lon="4.22111">
        <ele>169.81</ele>
        <time>2025-10-14T13:38:11Z</time>
      </trkpt>
      <trkpt lat="44.25495" lon="4.22114">
        <ele>170.29</ele>
        <time>2025-10-14T13:38:31Z</time>
      </trkpt>
      <trkpt lat="44.25493" lon="4.22112">
        <ele>168.37</ele>
        <time>2025-10-14T13:38:40Z</time>
      </trkpt>
      <trkpt lat="44.25493" lon="4.22112">
        <ele>169.81</ele>
        <time>2025-10-14T13:38:42Z</time>
      </trkpt>
      <trkpt lat="44.25491" lon="4.22111">
        <ele>170.29</ele>
        <time>2025-10-14T13:39:01Z</time>
      </trkpt>
      <trkpt lat="44.25492" lon="4.22112">
        <ele>168.85</ele>
        <time>2025-10-14T13:39:07Z</time>
      </trkpt>
      <trkpt lat="44.25492" lon="4.22112">
        <ele>171.25</ele>
        <time>2025-10-14T13:39:10Z</time>
      </trkpt>
      <trkpt lat="44.25493" lon="4.22112">
        <ele>168.85</ele>
        <time>2025-10-14T13:39:16Z</time>
      </trkpt>
      <trkpt lat="44.25492" lon="4.22112">
        <ele>170.29</ele>
        <time>2025-10-14T13:39:25Z</time>
      </trkpt>
      <trkpt lat="44.25486" lon="4.2211">
        <ele>168.37</ele>
        <time>2025-10-14T13:39:44Z</time>
      </trkpt>
      <trkpt lat="44.25485" lon="4.22109">
        <ele>169.81</ele>
        <time>2025-10-14T13:39:46Z</time>
      </trkpt>
      <trkpt lat="44.25471" lon="4.22105">
        <ele>171.73</ele>
        <time>2025-10-14T13:39:59Z</time>
      </trkpt>
      <trkpt lat="44.25469" lon="4.22105">
        <ele>170.29</ele>
        <time>2025-10-14T13:40:01Z</time>
      </trkpt>
      <trkpt lat="44.25465" lon="4.22105">
        <ele>171.73</ele>
        <time>2025-10-14T13:40:05Z</time>
      </trkpt>
      <trkpt lat="44.25462" lon="4.22105">
        <ele>170.77</ele>
        <time>2025-10-14T13:40:09Z</time>
      </trkpt>
      <trkpt lat="44.25461" lon="4.22105">
        <ele>172.21</ele>
        <time>2025-10-14T13:40:11Z</time>
      </trkpt>
      <trkpt lat="44.25457" lon="4.22104">
        <ele>170.77</ele>
        <time>2025-10-14T13:40:18Z</time>
      </trkpt>
      <trkpt lat="44.25454" lon="4.22102">
        <ele>172.21</ele>
        <time>2025-10-14T13:40:22Z</time>
      </trkpt>
      <trkpt lat="44.25427" lon="4.22092">
        <ele>171.73</ele>
        <time>2025-10-14T13:40:44Z</time>
      </trkpt>
      <trkpt lat="44.25423" lon="4.22091">
        <ele>173.66</ele>
        <time>2025-10-14T13:40:47Z</time>
      </trkpt>
      <trkpt lat="44.25418" lon="4.22089">
        <ele>171.73</ele>
        <time>2025-10-14T13:40:52Z</time>
      </trkpt>
      <trkpt lat="44.25416" lon="4.22089">
        <ele>173.17</ele>
        <time>2025-10-14T13:40:54Z</time>
      </trkpt>
      <trkpt lat="44.25409" lon="4.2208">
        <ele>171.73</ele>
        <time>2025-10-14T13:41:04Z</time>
      </trkpt>
      <trkpt lat="44.25406" lon="4.22074">
        <ele>174.62</ele>
        <time>2025-10-14T13:41:11Z</time>
      </trkpt>
      <trkpt lat="44.25406" lon="4.22072">
        <ele>172.21</ele>
        <time>2025-10-14T13:41:13Z</time>
      </trkpt>
      <trkpt lat="44.25406" lon="4.22069">
        <ele>174.14</ele>
        <time>2025-10-14T13:41:15Z</time>
      </trkpt>
      <trkpt lat="44.25408" lon="4.2206">
        <ele>171.25</ele>
        <time>2025-10-14T13:41:30Z</time>
      </trkpt>
      <trkpt lat="44.25408" lon="4.22059">
        <ele>177.5</ele>
        <time>2025-10-14T13:41:31Z</time>
      </trkpt>
      <trkpt lat="44.25407" lon="4.22057">
        <ele>174.14</ele>
        <time>2025-10-14T13:41:33Z</time>
      </trkpt>
      <trkpt lat="44.25407" lon="4.22046">
        <ele>174.62</ele>
        <time>2025-10-14T13:41:43Z</time>
      </trkpt>
      <trkpt lat="44.25406" lon="4.22044">
        <ele>176.06</ele>
        <time>2025-10-14T13:41:45Z</time>
      </trkpt>
      <trkpt lat="44.25404" lon="4.22026">
        <ele>172.69</ele>
        <time>2025-10-14T13:42:00Z</time>
      </trkpt>
      <trkpt lat="44.25404" lon="4.22025">
        <ele>176.54</ele>
        <time>2025-10-14T13:42:01Z</time>
      </trkpt>
      <trkpt lat="44.25404" lon="4.22024">
        <ele>176.54</ele>
        <time>2025-10-14T13:42:02Z</time>
      </trkpt>
      <trkpt lat="44.25407" lon="4.22012">
        <ele>174.62</ele>
        <time>2025-10-14T13:42:13Z</time>
      </trkpt>
      <trkpt lat="44.25407" lon="4.2201">
        <ele>176.54</ele>
        <time>2025-10-14T13:42:15Z</time>
      </trkpt>
      <trkpt lat="44.25408" lon="4.22007">
        <ele>177.02</ele>
        <time>2025-10-14T13:42:19Z</time>
      </trkpt>
      <trkpt lat="44.25411" lon="4.22001">
        <ele>175.1</ele>
        <time>2025-10-14T13:42:29Z</time>
      </trkpt>
      <trkpt lat="44.25407" lon="4.21991">
        <ele>175.1</ele>
        <time>2025-10-14T13:42:44Z</time>
      </trkpt>
      <trkpt lat="44.25407" lon="4.21992">
        <ele>175.1</ele>
        <time>2025-10-14T13:43:12Z</time>
      </trkpt>
      <trkpt lat="44.25405" lon="4.21989">
        <ele>175.1</ele>
        <time>2025-10-14T13:43:40Z</time>
      </trkpt>
      <trkpt lat="44.25407" lon="4.2199">
        <ele>173.17</ele>
        <time>2025-10-14T13:43:42Z</time>
      </trkpt>
      <trkpt lat="44.25407" lon="4.21998">
        <ele>176.54</ele>
        <time>2025-10-14T13:43:51Z</time>
      </trkpt>
      <trkpt lat="44.25409" lon="4.22004">
        <ele>176.06</ele>
        <time>2025-10-14T13:44:10Z</time>
      </trkpt>
      <trkpt lat="44.25407" lon="4.22004">
        <ele>175.58</ele>
        <time>2025-10-14T13:44:31Z</time>
      </trkpt>
      <trkpt lat="44.25407" lon="4.22004">
        <ele>177.5</ele>
        <time>2025-10-14T13:44:35Z</time>
      </trkpt>
      <trkpt lat="44.25407" lon="4.22004">
        <ele>174.14</ele>
        <time>2025-10-14T13:44:37Z</time>
      </trkpt>
      <trkpt lat="44.25407" lon="4.22003">
        <ele>174.14</ele>
        <time>2025-10-14T13:44:38Z</time>
      </trkpt>
      <trkpt lat="44.25407" lon="4.22003">
        <ele>180.38</ele>
        <time>2025-10-14T13:44:39Z</time>
      </trkpt>
      <trkpt lat="44.25407" lon="4.22004">
        <ele>176.54</ele>
        <time>2025-10-14T13:44:40Z</time>
      </trkpt>
      <trkpt lat="44.25407" lon="4.22007">
        <ele>177.5</ele>
        <time>2025-10-14T13:45:01Z</time>
      </trkpt>
      <trkpt lat="44.25406" lon="4.22012">
        <ele>176.54</ele>
        <time>2025-10-14T13:45:10Z</time>
      </trkpt>
      <trkpt lat="44.25405" lon="4.22013">
        <ele>175.58</ele>
        <time>2025-10-14T13:45:32Z</time>
      </trkpt>
      <trkpt lat="44.25395" lon="4.22016">
        <ele>174.62</ele>
        <time>2025-10-14T13:45:53Z</time>
      </trkpt>
      <trkpt lat="44.2539" lon="4.22019">
        <ele>175.58</ele>
        <time>2025-10-14T13:46:03Z</time>
      </trkpt>
      <trkpt lat="44.25373" lon="4.22022">
        <ele>174.62</ele>
        <time>2025-10-14T13:46:24Z</time>
      </trkpt>
      <trkpt lat="44.25366" lon="4.22025">
        <ele>174.62</ele>
        <time>2025-10-14T13:46:44Z</time>
      </trkpt>
      <trkpt lat="44.25355" lon="4.22032">
        <ele>171.25</ele>
        <time>2025-10-14T13:47:02Z</time>
      </trkpt>
      <trkpt lat="44.25342" lon="4.22019">
        <ele>169.81</ele>
        <time>2025-10-14T13:47:20Z</time>
      </trkpt>
      <trkpt lat="44.25332" lon="4.21999">
        <ele>167.89</ele>
        <time>2025-10-14T13:47:41Z</time>
      </trkpt>
      <trkpt lat="44.25328" lon="4.21991">
        <ele>167.89</ele>
        <time>2025-10-14T13:47:47Z</time>
      </trkpt>
      <trkpt lat="44.25319" lon="4.21984">
        <ele>170.29</ele>
        <time>2025-10-14T13:47:56Z</time>
      </trkpt>
      <trkpt lat="44.25318" lon="4.21982">
        <ele>168.85</ele>
        <time>2025-10-14T13:47:59Z</time>
      </trkpt>
      <trkpt lat="44.25313" lon="4.21976">
        <ele>170.29</ele>
        <time>2025-10-14T13:48:06Z</time>
      </trkpt>
      <trkpt lat="44.25311" lon="4.2196">
        <ele>168.37</ele>
        <time>2025-10-14T13:48:19Z</time>
      </trkpt>
      <trkpt lat="44.25306" lon="4.2195">
        <ele>167.41</ele>
        <time>2025-10-14T13:48:28Z</time>
      </trkpt>
      <trkpt lat="44.25296" lon="4.21933">
        <ele>167.41</ele>
        <time>2025-10-14T13:48:44Z</time>
      </trkpt>
      <trkpt lat="44.25293" lon="4.21916">
        <ele>167.41</ele>
        <time>2025-10-14T13:48:57Z</time>
      </trkpt>
      <trkpt lat="44.25289" lon="4.21901">
        <ele>169.33</ele>
        <time>2025-10-14T13:49:08Z</time>
      </trkpt>
      <trkpt lat="44.25286" lon="4.21895">
        <ele>167.89</ele>
        <time>2025-10-14T13:49:12Z</time>
      </trkpt>
      <trkpt lat="44.25273" lon="4.2188">
        <ele>169.33</ele>
        <time>2025-10-14T13:49:30Z</time>
      </trkpt>
      <trkpt lat="44.25271" lon="4.21878">
        <ele>170.29</ele>
        <time>2025-10-14T13:49:34Z</time>
      </trkpt>
      <trkpt lat="44.25265" lon="4.21877">
        <ele>168.85</ele>
        <time>2025-10-14T13:49:43Z</time>
      </trkpt>
      <trkpt lat="44.25264" lon="4.21874">
        <ele>170.29</ele>
        <time>2025-10-14T13:49:53Z</time>
      </trkpt>
      <trkpt lat="44.25261" lon="4.21875">
        <ele>170.29</ele>
        <time>2025-10-14T13:50:30Z</time>
      </trkpt>
      <trkpt lat="44.25261" lon="4.21875">
        <ele>169.33</ele>
        <time>2025-10-14T13:50:37Z</time>
      </trkpt>
      <trkpt lat="44.25252" lon="4.21864">
        <ele>167.89</ele>
        <time>2025-10-14T13:50:52Z</time>
      </trkpt>
      <trkpt lat="44.25245" lon="4.21851">
        <ele>167.41</ele>
        <time>2025-10-14T13:51:02Z</time>
      </trkpt>
      <trkpt lat="44.25244" lon="4.2185">
        <ele>168.85</ele>
        <time>2025-10-14T13:51:03Z</time>
      </trkpt>
      <trkpt lat="44.25226" lon="4.21835">
        <ele>165.96</ele>
        <time>2025-10-14T13:51:20Z</time>
      </trkpt>
      <trkpt lat="44.25207" lon="4.21818">
        <ele>166.93</ele>
        <time>2025-10-14T13:51:39Z</time>
      </trkpt>
      <trkpt lat="44.25206" lon="4.21818">
        <ele>166.93</ele>
        <time>2025-10-14T13:51:40Z</time>
      </trkpt>
      <trkpt lat="44.25205" lon="4.21817">
        <ele>165.48</ele>
        <time>2025-10-14T13:51:42Z</time>
      </trkpt>
      <trkpt lat="44.2519" lon="4.21802">
        <ele>164.04</ele>
        <time>2025-10-14T13:51:59Z</time>
      </trkpt>
      <trkpt lat="44.25186" lon="4.21801">
        <ele>165</ele>
        <time>2025-10-14T13:52:08Z</time>
      </trkpt>
      <trkpt lat="44.25184" lon="4.21801">
        <ele>163.08</ele>
        <time>2025-10-14T13:52:10Z</time>
      </trkpt>
      <trkpt lat="44.25179" lon="4.21798">
        <ele>161.16</ele>
        <time>2025-10-14T13:52:16Z</time>
      </trkpt>
      <trkpt lat="44.25175" lon="4.2179">
        <ele>161.16</ele>
        <time>2025-10-14T13:52:33Z</time>
      </trkpt>
      <trkpt lat="44.25168" lon="4.21781">
        <ele>160.2</ele>
        <time>2025-10-14T13:52:47Z</time>
      </trkpt>
      <trkpt lat="44.25167" lon="4.2178">
        <ele>162.6</ele>
        <time>2025-10-14T13:52:51Z</time>
      </trkpt>
      <trkpt lat="44.25167" lon="4.2178">
        <ele>161.16</ele>
        <time>2025-10-14T13:52:55Z</time>
      </trkpt>
      <trkpt lat="44.25167" lon="4.21778">
        <ele>161.16</ele>
        <time>2025-10-14T13:53:30Z</time>
      </trkpt>
      <trkpt lat="44.25167" lon="4.21774">
        <ele>162.12</ele>
        <time>2025-10-14T13:53:39Z</time>
      </trkpt>
      <trkpt lat="44.25166" lon="4.21774">
        <ele>160.68</ele>
        <time>2025-10-14T13:53:42Z</time>
      </trkpt>
      <trkpt lat="44.25165" lon="4.21769">
        <ele>163.08</ele>
        <time>2025-10-14T13:53:53Z</time>
      </trkpt>
      <trkpt lat="44.25162" lon="4.21765">
        <ele>157.79</ele>
        <time>2025-10-14T13:53:59Z</time>
      </trkpt>
      <trkpt lat="44.25162" lon="4.21765">
        <ele>164.52</ele>
        <time>2025-10-14T13:54:00Z</time>
      </trkpt>
      <trkpt lat="44.25161" lon="4.21763">
        <ele>161.16</ele>
        <time>2025-10-14T13:54:02Z</time>
      </trkpt>
      <trkpt lat="44.25161" lon="4.21762">
        <ele>161.16</ele>
        <time>2025-10-14T13:54:03Z</time>
      </trkpt>
      <trkpt lat="44.25156" lon="4.21751">
        <ele>158.27</ele>
        <time>2025-10-14T13:54:16Z</time>
      </trkpt>
      <trkpt lat="44.25156" lon="4.21749">
        <ele>160.68</ele>
        <time>2025-10-14T13:54:18Z</time>
      </trkpt>
      <trkpt lat="44.25148" lon="4.21736">
        <ele>160.2</ele>
        <time>2025-10-14T13:54:33Z</time>
      </trkpt>
      <trkpt lat="44.25144" lon="4.21721">
        <ele>160.68</ele>
        <time>2025-10-14T13:54:50Z</time>
      </trkpt>
      <trkpt lat="44.25134" lon="4.21699">
        <ele>161.64</ele>
        <time>2025-10-14T13:55:09Z</time>
      </trkpt>
      <trkpt lat="44.25125" lon="4.21675">
        <ele>160.68</ele>
        <time>2025-10-14T13:55:28Z</time>
      </trkpt>
      <trkpt lat="44.2512" lon="4.21652">
        <ele>159.24</ele>
        <time>2025-10-14T13:55:47Z</time>
      </trkpt>
      <trkpt lat="44.25119" lon="4.21638">
        <ele>157.31</ele>
        <time>2025-10-14T13:55:57Z</time>
      </trkpt>
      <trkpt lat="44.25116" lon="4.21616">
        <ele>156.35</ele>
        <time>2025-10-14T13:56:13Z</time>
      </trkpt>
      <trkpt lat="44.25115" lon="4.21596">
        <ele>155.39</ele>
        <time>2025-10-14T13:56:28Z</time>
      </trkpt>
      <trkpt lat="44.25116" lon="4.21577">
        <ele>153.47</ele>
        <time>2025-10-14T13:56:49Z</time>
      </trkpt>
      <trkpt lat="44.25114" lon="4.21575">
        <ele>153.47</ele>
        <time>2025-10-14T13:56:56Z</time>
      </trkpt>
      <trkpt lat="44.25114" lon="4.21575">
        <ele>154.43</ele>
        <time>2025-10-14T13:56:59Z</time>
      </trkpt>
      <trkpt lat="44.25116" lon="4.21578">
        <ele>152.99</ele>
        <time>2025-10-14T13:57:25Z</time>
      </trkpt>
      <trkpt lat="44.25116" lon="4.21579">
        <ele>152.99</ele>
        <time>2025-10-14T13:57:45Z</time>
      </trkpt>
      <trkpt lat="44.25115" lon="4.21577">
        <ele>154.91</ele>
        <time>2025-10-14T13:58:04Z</time>
      </trkpt>
      <trkpt lat="44.25114" lon="4.21575">
        <ele>152.99</ele>
        <time>2025-10-14T13:58:21Z</time>
      </trkpt>
      <trkpt lat="44.25114" lon="4.21572">
        <ele>154.43</ele>
        <time>2025-10-14T13:58:37Z</time>
      </trkpt>
      <trkpt lat="44.25119" lon="4.21559">
        <ele>152.51</ele>
        <time>2025-10-14T13:59:01Z</time>
      </trkpt>
      <trkpt lat="44.25119" lon="4.21551">
        <ele>153.47</ele>
        <time>2025-10-14T13:59:13Z</time>
      </trkpt>
      <trkpt lat="44.25119" lon="4.21549">
        <ele>151.54</ele>
        <time>2025-10-14T13:59:16Z</time>
      </trkpt>
      <trkpt lat="44.25118" lon="4.21536">
        <ele>151.06</ele>
        <time>2025-10-14T13:59:27Z</time>
      </trkpt>
      <trkpt lat="44.25117" lon="4.21533">
        <ele>152.51</ele>
        <time>2025-10-14T13:59:29Z</time>
      </trkpt>
      <trkpt lat="44.25115" lon="4.21504">
        <ele>151.54</ele>
        <time>2025-10-14T13:59:49Z</time>
      </trkpt>
      <trkpt lat="44.25118" lon="4.21481">
        <ele>152.03</ele>
        <time>2025-10-14T14:00:09Z</time>
      </trkpt>
      <trkpt lat="44.25117" lon="4.2147">
        <ele>150.1</ele>
        <time>2025-10-14T14:00:18Z</time>
      </trkpt>
      <trkpt lat="44.25113" lon="4.21447">
        <ele>150.58</ele>
        <time>2025-10-14T14:00:36Z</time>
      </trkpt>
      <trkpt lat="44.25109" lon="4.21424">
        <ele>148.18</ele>
        <time>2025-10-14T14:00:55Z</time>
      </trkpt>
      <trkpt lat="44.25107" lon="4.21401">
        <ele>146.26</ele>
        <time>2025-10-14T14:01:16Z</time>
      </trkpt>
      <trkpt lat="44.25101" lon="4.21381">
        <ele>144.82</ele>
        <time>2025-10-14T14:01:40Z</time>
      </trkpt>
      <trkpt lat="44.25099" lon="4.2137">
        <ele>143.85</ele>
        <time>2025-10-14T14:01:57Z</time>
      </trkpt>
      <trkpt lat="44.25092" lon="4.21347">
        <ele>141.93</ele>
        <time>2025-10-14T14:02:20Z</time>
      </trkpt>
      <trkpt lat="44.25087" lon="4.21343">
        <ele>140.97</ele>
        <time>2025-10-14T14:02:32Z</time>
      </trkpt>
      <trkpt lat="44.25086" lon="4.21339">
        <ele>141.45</ele>
        <time>2025-10-14T14:02:38Z</time>
      </trkpt>
      <trkpt lat="44.25085" lon="4.21336">
        <ele>138.09</ele>
        <time>2025-10-14T14:02:48Z</time>
      </trkpt>
      <trkpt lat="44.25092" lon="4.21326">
        <ele>138.09</ele>
        <time>2025-10-14T14:03:04Z</time>
      </trkpt>
      <trkpt lat="44.25097" lon="4.21326">
        <ele>137.61</ele>
        <time>2025-10-14T14:03:10Z</time>
      </trkpt>
      <trkpt lat="44.25098" lon="4.21323">
        <ele>139.53</ele>
        <time>2025-10-14T14:03:16Z</time>
      </trkpt>
      <trkpt lat="44.251" lon="4.21321">
        <ele>139.05</ele>
        <time>2025-10-14T14:03:42Z</time>
      </trkpt>
      <trkpt lat="44.251" lon="4.21321">
        <ele>137.61</ele>
        <time>2025-10-14T14:03:45Z</time>
      </trkpt>
      <trkpt lat="44.25102" lon="4.21321">
        <ele>139.05</ele>
        <time>2025-10-14T14:03:56Z</time>
      </trkpt>
      <trkpt lat="44.2512" lon="4.21317">
        <ele>138.57</ele>
        <time>2025-10-14T14:04:16Z</time>
      </trkpt>
      <trkpt lat="44.25122" lon="4.21317">
        <ele>140.01</ele>
        <time>2025-10-14T14:04:18Z</time>
      </trkpt>
      <trkpt lat="44.25123" lon="4.21316">
        <ele>139.05</ele>
        <time>2025-10-14T14:04:20Z</time>
      </trkpt>
      <trkpt lat="44.25124" lon="4.21315">
        <ele>140.01</ele>
        <time>2025-10-14T14:04:22Z</time>
      </trkpt>
      <trkpt lat="44.25135" lon="4.21311">
        <ele>139.05</ele>
        <time>2025-10-14T14:04:37Z</time>
      </trkpt>
      <trkpt lat="44.25136" lon="4.21311">
        <ele>140.49</ele>
        <time>2025-10-14T14:04:39Z</time>
      </trkpt>
      <trkpt lat="44.25141" lon="4.21309">
        <ele>139.53</ele>
        <time>2025-10-14T14:04:46Z</time>
      </trkpt>
      <trkpt lat="44.25143" lon="4.21308">
        <ele>140.49</ele>
        <time>2025-10-14T14:04:48Z</time>
      </trkpt>
      <trkpt lat="44.25151" lon="4.21306">
        <ele>140.97</ele>
        <time>2025-10-14T14:04:57Z</time>
      </trkpt>
      <trkpt lat="44.25154" lon="4.21305">
        <ele>139.53</ele>
        <time>2025-10-14T14:05:00Z</time>
      </trkpt>
      <trkpt lat="44.25168" lon="4.21304">
        <ele>139.53</ele>
        <time>2025-10-14T14:05:11Z</time>
      </trkpt>
      <trkpt lat="44.25189" lon="4.21303">
        <ele>138.57</ele>
        <time>2025-10-14T14:05:33Z</time>
      </trkpt>
      <trkpt lat="44.25208" lon="4.21303">
        <ele>139.05</ele>
        <time>2025-10-14T14:05:49Z</time>
      </trkpt>
      <trkpt lat="44.25213" lon="4.21302">
        <ele>137.61</ele>
        <time>2025-10-14T14:05:54Z</time>
      </trkpt>
      <trkpt lat="44.25216" lon="4.21301">
        <ele>139.05</ele>
        <time>2025-10-14T14:05:56Z</time>
      </trkpt>
      <trkpt lat="44.25233" lon="4.21301">
        <ele>137.13</ele>
        <time>2025-10-14T14:06:14Z</time>
      </trkpt>
      <trkpt lat="44.25238" lon="4.21301">
        <ele>136.64</ele>
        <time>2025-10-14T14:06:20Z</time>
      </trkpt>
      <trkpt lat="44.25241" lon="4.21303">
        <ele>136.64</ele>
        <time>2025-10-14T14:06:25Z</time>
      </trkpt>
      <trkpt lat="44.25242" lon="4.21304">
        <ele>138.09</ele>
        <time>2025-10-14T14:06:27Z</time>
      </trkpt>
      <trkpt lat="44.25264" lon="4.21311">
        <ele>136.16</ele>
        <time>2025-10-14T14:06:49Z</time>
      </trkpt>
      <trkpt lat="44.25275" lon="4.21307">
        <ele>136.16</ele>
        <time>2025-10-14T14:07:05Z</time>
      </trkpt>
      <trkpt lat="44.25278" lon="4.21306">
        <ele>134.72</ele>
        <time>2025-10-14T14:07:08Z</time>
      </trkpt>
      <trkpt lat="44.25295" lon="4.21302">
        <ele>135.68</ele>
        <time>2025-10-14T14:07:22Z</time>
      </trkpt>
      <trkpt lat="44.25306" lon="4.213">
        <ele>135.2</ele>
        <time>2025-10-14T14:07:30Z</time>
      </trkpt>
      <trkpt lat="44.25329" lon="4.21294">
        <ele>134.24</ele>
        <time>2025-10-14T14:07:49Z</time>
      </trkpt>
      <trkpt lat="44.25333" lon="4.21291">
        <ele>134.72</ele>
        <time>2025-10-14T14:07:55Z</time>
      </trkpt>
      <trkpt lat="44.25335" lon="4.2129">
        <ele>133.28</ele>
        <time>2025-10-14T14:07:57Z</time>
      </trkpt>
      <trkpt lat="44.25347" lon="4.21281">
        <ele>135.2</ele>
        <time>2025-10-14T14:08:14Z</time>
      </trkpt>
      <trkpt lat="44.25371" lon="4.21275">
        <ele>133.76</ele>
        <time>2025-10-14T14:08:34Z</time>
      </trkpt>
      <trkpt lat="44.25394" lon="4.21267">
        <ele>135.2</ele>
        <time>2025-10-14T14:08:56Z</time>
      </trkpt>
      <trkpt lat="44.25404" lon="4.21261">
        <ele>133.28</ele>
        <time>2025-10-14T14:09:06Z</time>
      </trkpt>
      <trkpt lat="44.25405" lon="4.21259">
        <ele>134.72</ele>
        <time>2025-10-14T14:09:08Z</time>
      </trkpt>
      <trkpt lat="44.25421" lon="4.21242">
        <ele>134.72</ele>
        <time>2025-10-14T14:09:29Z</time>
      </trkpt>
      <trkpt lat="44.25424" lon="4.2124">
        <ele>133.28</ele>
        <time>2025-10-14T14:09:32Z</time>
      </trkpt>
      <trkpt lat="44.25427" lon="4.21238">
        <ele>134.72</ele>
        <time>2025-10-14T14:09:35Z</time>
      </trkpt>
      <trkpt lat="44.25442" lon="4.21223">
        <ele>133.28</ele>
        <time>2025-10-14T14:09:56Z</time>
      </trkpt>
      <trkpt lat="44.25447" lon="4.21223">
        <ele>134.72</ele>
        <time>2025-10-14T14:10:00Z</time>
      </trkpt>
      <trkpt lat="44.2545" lon="4.21224">
        <ele>133.28</ele>
        <time>2025-10-14T14:10:02Z</time>
      </trkpt>
      <trkpt lat="44.25473" lon="4.21245">
        <ele>131.36</ele>
        <time>2025-10-14T14:10:24Z</time>
      </trkpt>
      <trkpt lat="44.25485" lon="4.21274">
        <ele>130.88</ele>
        <time>2025-10-14T14:10:48Z</time>
      </trkpt>
      <trkpt lat="44.25487" lon="4.21278">
        <ele>132.32</ele>
        <time>2025-10-14T14:10:52Z</time>
      </trkpt>
      <trkpt lat="44.25494" lon="4.21293">
        <ele>131.84</ele>
        <time>2025-10-14T14:11:13Z</time>
      </trkpt>
      <trkpt lat="44.25494" lon="4.21294">
        <ele>130.4</ele>
        <time>2025-10-14T14:11:20Z</time>
      </trkpt>
      <trkpt lat="44.25494" lon="4.21295">
        <ele>131.84</ele>
        <time>2025-10-14T14:11:26Z</time>
      </trkpt>
      <trkpt lat="44.25494" lon="4.21295">
        <ele>130.4</ele>
        <time>2025-10-14T14:11:29Z</time>
      </trkpt>
      <trkpt lat="44.25494" lon="4.21296">
        <ele>131.84</ele>
        <time>2025-10-14T14:11:34Z</time>
      </trkpt>
      <trkpt lat="44.25503" lon="4.21302">
        <ele>131.36</ele>
        <time>2025-10-14T14:11:53Z</time>
      </trkpt>
      <trkpt lat="44.25521" lon="4.21313">
        <ele>131.36</ele>
        <time>2025-10-14T14:12:15Z</time>
      </trkpt>
      <trkpt lat="44.25535" lon="4.21325">
        <ele>131.36</ele>
        <time>2025-10-14T14:12:32Z</time>
      </trkpt>
      <trkpt lat="44.25552" lon="4.21339">
        <ele>131.36</ele>
        <time>2025-10-14T14:12:52Z</time>
      </trkpt>
      <trkpt lat="44.25574" lon="4.21353">
        <ele>131.84</ele>
        <time>2025-10-14T14:13:13Z</time>
      </trkpt>
      <trkpt lat="44.25595" lon="4.21367">
        <ele>131.84</ele>
        <time>2025-10-14T14:13:32Z</time>
      </trkpt>
      <trkpt lat="44.25604" lon="4.21373">
        <ele>130.88</ele>
        <time>2025-10-14T14:13:41Z</time>
      </trkpt>
      <trkpt lat="44.25615" lon="4.21378">
        <ele>132.32</ele>
        <time>2025-10-14T14:13:52Z</time>
      </trkpt>
      <trkpt lat="44.25619" lon="4.2138">
        <ele>130.88</ele>
        <time>2025-10-14T14:13:56Z</time>
      </trkpt>
      <trkpt lat="44.25623" lon="4.21383">
        <ele>131.84</ele>
        <time>2025-10-14T14:14:00Z</time>
      </trkpt>
      <trkpt lat="44.2563" lon="4.21392">
        <ele>130.88</ele>
        <time>2025-10-14T14:14:09Z</time>
      </trkpt>
      <trkpt lat="44.25641" lon="4.21402">
        <ele>131.84</ele>
        <time>2025-10-14T14:14:21Z</time>
      </trkpt>
      <trkpt lat="44.25665" lon="4.2142">
        <ele>132.32</ele>
        <time>2025-10-14T14:14:44Z</time>
      </trkpt>
      <trkpt lat="44.25682" lon="4.21432">
        <ele>132.32</ele>
        <time>2025-10-14T14:15:01Z</time>
      </trkpt>
      <trkpt lat="44.25705" lon="4.21445">
        <ele>132.32</ele>
        <time>2025-10-14T14:15:25Z</time>
      </trkpt>
      <trkpt lat="44.25711" lon="4.21437">
        <ele>130.4</ele>
        <time>2025-10-14T14:15:43Z</time>
      </trkpt>
      <trkpt lat="44.25711" lon="4.21436">
        <ele>134.24</ele>
        <time>2025-10-14T14:15:44Z</time>
      </trkpt>
      <trkpt lat="44.25711" lon="4.21434">
        <ele>131.84</ele>
        <time>2025-10-14T14:15:47Z</time>
      </trkpt>
      <trkpt lat="44.25714" lon="4.21427">
        <ele>132.8</ele>
        <time>2025-10-14T14:15:54Z</time>
      </trkpt>
      <trkpt lat="44.25717" lon="4.21406">
        <ele>131.84</ele>
        <time>2025-10-14T14:16:14Z</time>
      </trkpt>
      <trkpt lat="44.25724" lon="4.2138">
        <ele>131.84</ele>
        <time>2025-10-14T14:16:30Z</time>
      </trkpt>
      <trkpt lat="44.25724" lon="4.21377">
        <ele>133.76</ele>
        <time>2025-10-14T14:16:32Z</time>
      </trkpt>
      <trkpt lat="44.25726" lon="4.21357">
        <ele>135.2</ele>
        <time>2025-10-14T14:16:58Z</time>
      </trkpt>
      <trkpt lat="44.25726" lon="4.21357">
        <ele>135.2</ele>
        <time>2025-10-14T14:16:59Z</time>
      </trkpt>
      <trkpt lat="44.25726" lon="4.21356">
        <ele>133.28</ele>
        <time>2025-10-14T14:17:01Z</time>
      </trkpt>
      <trkpt lat="44.25728" lon="4.2135">
        <ele>134.24</ele>
        <time>2025-10-14T14:17:06Z</time>
      </trkpt>
      <trkpt lat="44.25728" lon="4.21349">
        <ele>130.4</ele>
        <time>2025-10-14T14:17:07Z</time>
      </trkpt>
      <trkpt lat="44.25728" lon="4.21348">
        <ele>136.16</ele>
        <time>2025-10-14T14:17:08Z</time>
      </trkpt>
      <trkpt lat="44.25728" lon="4.21348">
        <ele>130.4</ele>
        <time>2025-10-14T14:17:09Z</time>
      </trkpt>
      <trkpt lat="44.25729" lon="4.21347">
        <ele>135.68</ele>
        <time>2025-10-14T14:17:10Z</time>
      </trkpt>
      <trkpt lat="44.25732" lon="4.21342">
        <ele>132.32</ele>
        <time>2025-10-14T14:17:17Z</time>
      </trkpt>
      <trkpt lat="44.25732" lon="4.2134">
        <ele>133.28</ele>
        <time>2025-10-14T14:17:21Z</time>
      </trkpt>
      <trkpt lat="44.2574" lon="4.21317">
        <ele>134.72</ele>
        <time>2025-10-14T14:17:43Z</time>
      </trkpt>
      <trkpt lat="44.25738" lon="4.21292">
        <ele>133.28</ele>
        <time>2025-10-14T14:17:59Z</time>
      </trkpt>
      <trkpt lat="44.25741" lon="4.2129">
        <ele>136.16</ele>
        <time>2025-10-14T14:18:05Z</time>
      </trkpt>
      <trkpt lat="44.25742" lon="4.21288">
        <ele>134.72</ele>
        <time>2025-10-14T14:18:07Z</time>
      </trkpt>
      <trkpt lat="44.25743" lon="4.21274">
        <ele>134.24</ele>
        <time>2025-10-14T14:18:17Z</time>
      </trkpt>
      <trkpt lat="44.25748" lon="4.21264">
        <ele>136.16</ele>
        <time>2025-10-14T14:18:28Z</time>
      </trkpt>
      <trkpt lat="44.2576" lon="4.21237">
        <ele>137.13</ele>
        <time>2025-10-14T14:18:50Z</time>
      </trkpt>
      <trkpt lat="44.2576" lon="4.21232">
        <ele>133.28</ele>
        <time>2025-10-14T14:18:55Z</time>
      </trkpt>
      <trkpt lat="44.25761" lon="4.21231">
        <ele>138.09</ele>
        <time>2025-10-14T14:18:56Z</time>
      </trkpt>
      <trkpt lat="44.25761" lon="4.2123">
        <ele>134.72</ele>
        <time>2025-10-14T14:18:57Z</time>
      </trkpt>
      <trkpt lat="44.25765" lon="4.21219">
        <ele>131.36</ele>
        <time>2025-10-14T14:19:09Z</time>
      </trkpt>
      <trkpt lat="44.25765" lon="4.21218">
        <ele>139.05</ele>
        <time>2025-10-14T14:19:10Z</time>
      </trkpt>
      <trkpt lat="44.25766" lon="4.21217">
        <ele>135.2</ele>
        <time>2025-10-14T14:19:11Z</time>
      </trkpt>
      <trkpt lat="44.25769" lon="4.21214">
        <ele>137.13</ele>
        <time>2025-10-14T14:19:15Z</time>
      </trkpt>
      <trkpt lat="44.25769" lon="4.21214">
        <ele>133.76</ele>
        <time>2025-10-14T14:19:16Z</time>
      </trkpt>
      <trkpt lat="44.2577" lon="4.21213">
        <ele>135.68</ele>
        <time>2025-10-14T14:19:17Z</time>
      </trkpt>
      <trkpt lat="44.25774" lon="4.21195">
        <ele>136.64</ele>
        <time>2025-10-14T14:19:32Z</time>
      </trkpt>
      <trkpt lat="44.25775" lon="4.21193">
        <ele>139.05</ele>
        <time>2025-10-14T14:19:34Z</time>
      </trkpt>
      <trkpt lat="44.25775" lon="4.21192">
        <ele>134.24</ele>
        <time>2025-10-14T14:19:35Z</time>
      </trkpt>
      <trkpt lat="44.25775" lon="4.21191">
        <ele>139.05</ele>
        <time>2025-10-14T14:19:36Z</time>
      </trkpt>
      <trkpt lat="44.25775" lon="4.21187">
        <ele>133.76</ele>
        <time>2025-10-14T14:19:40Z</time>
      </trkpt>
      <trkpt lat="44.25775" lon="4.21186">
        <ele>138.57</ele>
        <time>2025-10-14T14:19:41Z</time>
      </trkpt>
      <trkpt lat="44.25775" lon="4.21184">
        <ele>137.13</ele>
        <time>2025-10-14T14:19:44Z</time>
      </trkpt>
      <trkpt lat="44.25779" lon="4.2117">
        <ele>138.09</ele>
        <time>2025-10-14T14:19:55Z</time>
      </trkpt>
      <trkpt lat="44.25781" lon="4.21164">
        <ele>136.64</ele>
        <time>2025-10-14T14:20:03Z</time>
      </trkpt>
      <trkpt lat="44.25781" lon="4.21164">
        <ele>138.57</ele>
        <time>2025-10-14T14:20:05Z</time>
      </trkpt>
      <trkpt lat="44.25782" lon="4.21166">
        <ele>135.2</ele>
        <time>2025-10-14T14:20:16Z</time>
      </trkpt>
      <trkpt lat="44.25782" lon="4.21165">
        <ele>140.01</ele>
        <time>2025-10-14T14:20:17Z</time>
      </trkpt>
      <trkpt lat="44.25781" lon="4.21165">
        <ele>139.05</ele>
        <time>2025-10-14T14:20:18Z</time>
      </trkpt>
      <trkpt lat="44.25785" lon="4.21162">
        <ele>138.09</ele>
        <time>2025-10-14T14:20:41Z</time>
      </trkpt>
      <trkpt lat="44.25786" lon="4.21156">
        <ele>137.13</ele>
        <time>2025-10-14T14:20:46Z</time>
      </trkpt>
      <trkpt lat="44.25786" lon="4.21154">
        <ele>139.05</ele>
        <time>2025-10-14T14:20:48Z</time>
      </trkpt>
      <trkpt lat="44.25788" lon="4.21142">
        <ele>137.61</ele>
        <time>2025-10-14T14:20:59Z</time>
      </trkpt>
      <trkpt lat="44.25792" lon="4.21133">
        <ele>137.61</ele>
        <time>2025-10-14T14:21:16Z</time>
      </trkpt>
      <trkpt lat="44.25792" lon="4.21132">
        <ele>139.05</ele>
        <time>2025-10-14T14:21:18Z</time>
      </trkpt>
      <trkpt lat="44.25793" lon="4.21129">
        <ele>137.61</ele>
        <time>2025-10-14T14:21:27Z</time>
      </trkpt>
      <trkpt lat="44.25796" lon="4.21128">
        <ele>137.61</ele>
        <time>2025-10-14T14:21:49Z</time>
      </trkpt>
      <trkpt lat="44.25796" lon="4.21127">
        <ele>137.61</ele>
        <time>2025-10-14T14:21:50Z</time>
      </trkpt>
      <trkpt lat="44.25797" lon="4.21126">
        <ele>139.53</ele>
        <time>2025-10-14T14:21:52Z</time>
      </trkpt>
      <trkpt lat="44.25798" lon="4.21121">
        <ele>139.05</ele>
        <time>2025-10-14T14:21:58Z</time>
      </trkpt>
      <trkpt lat="44.25803" lon="4.21103">
        <ele>138.09</ele>
        <time>2025-10-14T14:22:15Z</time>
      </trkpt>
      <trkpt lat="44.25808" lon="4.21092">
        <ele>139.53</ele>
        <time>2025-10-14T14:22:26Z</time>
      </trkpt>
      <trkpt lat="44.2582" lon="4.21069">
        <ele>140.01</ele>
        <time>2025-10-14T14:22:48Z</time>
      </trkpt>
      <trkpt lat="44.25831" lon="4.21044">
        <ele>139.53</ele>
        <time>2025-10-14T14:23:09Z</time>
      </trkpt>
      <trkpt lat="44.25832" lon="4.2104">
        <ele>140.97</ele>
        <time>2025-10-14T14:23:12Z</time>
      </trkpt>
      <trkpt lat="44.25832" lon="4.21036">
        <ele>139.53</ele>
        <time>2025-10-14T14:23:15Z</time>
      </trkpt>
      <trkpt lat="44.25832" lon="4.21034">
        <ele>141.45</ele>
        <time>2025-10-14T14:23:17Z</time>
      </trkpt>
      <trkpt lat="44.25829" lon="4.21029">
        <ele>141.45</ele>
        <time>2025-10-14T14:23:22Z</time>
      </trkpt>
      <trkpt lat="44.25828" lon="4.21027">
        <ele>140.01</ele>
        <time>2025-10-14T14:23:25Z</time>
      </trkpt>
      <trkpt lat="44.2583" lon="4.21024">
        <ele>139.05</ele>
        <time>2025-10-14T14:23:50Z</time>
      </trkpt>
      <trkpt lat="44.2583" lon="4.21023">
        <ele>139.05</ele>
        <time>2025-10-14T14:23:51Z</time>
      </trkpt>
      <trkpt lat="44.2583" lon="4.21024">
        <ele>140.49</ele>
        <time>2025-10-14T14:23:53Z</time>
      </trkpt>
      <trkpt lat="44.25832" lon="4.21015">
        <ele>140.01</ele>
        <time>2025-10-14T14:24:12Z</time>
      </trkpt>
      <trkpt lat="44.25833" lon="4.21013">
        <ele>141.93</ele>
        <time>2025-10-14T14:24:14Z</time>
      </trkpt>
      <trkpt lat="44.25833" lon="4.21011">
        <ele>140.49</ele>
        <time>2025-10-14T14:24:16Z</time>
      </trkpt>
      <trkpt lat="44.25833" lon="4.2101">
        <ele>141.45</ele>
        <time>2025-10-14T14:24:18Z</time>
      </trkpt>
      <trkpt lat="44.25834" lon="4.20988">
        <ele>140.97</ele>
        <time>2025-10-14T14:24:37Z</time>
      </trkpt>
      <trkpt lat="44.25835" lon="4.20983">
        <ele>140.49</ele>
        <time>2025-10-14T14:24:42Z</time>
      </trkpt>
      <trkpt lat="44.25839" lon="4.20967">
        <ele>141.45</ele>
        <time>2025-10-14T14:24:53Z</time>
      </trkpt>
      <trkpt lat="44.2584" lon="4.20959">
        <ele>142.89</ele>
        <time>2025-10-14T14:24:59Z</time>
      </trkpt>
      <trkpt lat="44.25843" lon="4.20943">
        <ele>141.93</ele>
        <time>2025-10-14T14:25:13Z</time>
      </trkpt>
      <trkpt lat="44.25843" lon="4.2094">
        <ele>142.89</ele>
        <time>2025-10-14T14:25:15Z</time>
      </trkpt>
      <trkpt lat="44.25846" lon="4.20932">
        <ele>144.34</ele>
        <time>2025-10-14T14:25:22Z</time>
      </trkpt>
      <trkpt lat="44.25847" lon="4.20929">
        <ele>142.41</ele>
        <time>2025-10-14T14:25:25Z</time>
      </trkpt>
      <trkpt lat="44.25846" lon="4.20915">
        <ele>142.41</ele>
        <time>2025-10-14T14:25:36Z</time>
      </trkpt>
      <trkpt lat="44.25842" lon="4.20889">
        <ele>143.37</ele>
        <time>2025-10-14T14:25:57Z</time>
      </trkpt>
      <trkpt lat="44.25842" lon="4.20871">
        <ele>147.22</ele>
        <time>2025-10-14T14:26:13Z</time>
      </trkpt>
      <trkpt lat="44.2584" lon="4.20865">
        <ele>146.74</ele>
        <time>2025-10-14T14:26:18Z</time>
      </trkpt>
      <trkpt lat="44.25839" lon="4.20861">
        <ele>144.82</ele>
        <time>2025-10-14T14:26:20Z</time>
      </trkpt>
      <trkpt lat="44.25836" lon="4.20843">
        <ele>145.78</ele>
        <time>2025-10-14T14:26:34Z</time>
      </trkpt>
      <trkpt lat="44.25837" lon="4.20836">
        <ele>147.22</ele>
        <time>2025-10-14T14:26:39Z</time>
      </trkpt>
      <trkpt lat="44.2584" lon="4.20822">
        <ele>147.7</ele>
        <time>2025-10-14T14:26:54Z</time>
      </trkpt>
      <trkpt lat="44.2584" lon="4.20813">
        <ele>146.26</ele>
        <time>2025-10-14T14:27:00Z</time>
      </trkpt>
      <trkpt lat="44.2584" lon="4.20807">
        <ele>148.18</ele>
        <time>2025-10-14T14:27:03Z</time>
      </trkpt>
      <trkpt lat="44.25841" lon="4.20787">
        <ele>148.18</ele>
        <time>2025-10-14T14:27:18Z</time>
      </trkpt>
      <trkpt lat="44.25843" lon="4.20785">
        <ele>147.22</ele>
        <time>2025-10-14T14:27:20Z</time>
      </trkpt>
      <trkpt lat="44.25845" lon="4.20784">
        <ele>148.66</ele>
        <time>2025-10-14T14:27:22Z</time>
      </trkpt>
      <trkpt lat="44.25847" lon="4.20782">
        <ele>147.22</ele>
        <time>2025-10-14T14:27:24Z</time>
      </trkpt>
      <trkpt lat="44.25848" lon="4.2078">
        <ele>148.66</ele>
        <time>2025-10-14T14:27:26Z</time>
      </trkpt>
      <trkpt lat="44.25848" lon="4.20778">
        <ele>147.7</ele>
        <time>2025-10-14T14:27:28Z</time>
      </trkpt>
      <trkpt lat="44.25851" lon="4.20766">
        <ele>150.58</ele>
        <time>2025-10-14T14:27:38Z</time>
      </trkpt>
      <trkpt lat="44.25851" lon="4.20763">
        <ele>147.22</ele>
        <time>2025-10-14T14:27:40Z</time>
      </trkpt>
      <trkpt lat="44.25851" lon="4.20762">
        <ele>150.58</ele>
        <time>2025-10-14T14:27:41Z</time>
      </trkpt>
      <trkpt lat="44.25851" lon="4.20762">
        <ele>150.58</ele>
        <time>2025-10-14T14:27:42Z</time>
      </trkpt>
      <trkpt lat="44.25851" lon="4.2076">
        <ele>149.14</ele>
        <time>2025-10-14T14:27:44Z</time>
      </trkpt>
      <trkpt lat="44.25852" lon="4.2075">
        <ele>148.66</ele>
        <time>2025-10-14T14:27:54Z</time>
      </trkpt>
      <trkpt lat="44.25849" lon="4.20742">
        <ele>150.58</ele>
        <time>2025-10-14T14:28:01Z</time>
      </trkpt>
      <trkpt lat="44.2584" lon="4.20728">
        <ele>150.58</ele>
        <time>2025-10-14T14:28:12Z</time>
      </trkpt>
      <trkpt lat="44.25829" lon="4.20697">
        <ele>150.1</ele>
        <time>2025-10-14T14:28:36Z</time>
      </trkpt>
      <trkpt lat="44.25829" lon="4.20696">
        <ele>150.1</ele>
        <time>2025-10-14T14:28:37Z</time>
      </trkpt>
      <trkpt lat="44.25826" lon="4.20684">
        <ele>151.06</ele>
        <time>2025-10-14T14:28:45Z</time>
      </trkpt>
      <trkpt lat="44.25824" lon="4.20678">
        <ele>149.62</ele>
        <time>2025-10-14T14:28:49Z</time>
      </trkpt>
      <trkpt lat="44.25819" lon="4.2065">
        <ele>150.1</ele>
        <time>2025-10-14T14:29:08Z</time>
      </trkpt>
      <trkpt lat="44.25819" lon="4.20646">
        <ele>151.06</ele>
        <time>2025-10-14T14:29:10Z</time>
      </trkpt>
      <trkpt lat="44.25818" lon="4.20641">
        <ele>149.62</ele>
        <time>2025-10-14T14:29:14Z</time>
      </trkpt>
      <trkpt lat="44.25818" lon="4.20639">
        <ele>151.06</ele>
        <time>2025-10-14T14:29:16Z</time>
      </trkpt>
      <trkpt lat="44.25811" lon="4.20623">
        <ele>151.54</ele>
        <time>2025-10-14T14:29:29Z</time>
      </trkpt>
      <trkpt lat="44.25803" lon="4.20604">
        <ele>152.51</ele>
        <time>2025-10-14T14:29:45Z</time>
      </trkpt>
      <trkpt lat="44.25801" lon="4.20596">
        <ele>151.06</ele>
        <time>2025-10-14T14:29:51Z</time>
      </trkpt>
      <trkpt lat="44.258" lon="4.20593">
        <ele>152.99</ele>
        <time>2025-10-14T14:29:53Z</time>
      </trkpt>
      <trkpt lat="44.25795" lon="4.20568">
        <ele>152.99</ele>
        <time>2025-10-14T14:30:14Z</time>
      </trkpt>
      <trkpt lat="44.25796" lon="4.20565">
        <ele>154.43</ele>
        <time>2025-10-14T14:30:16Z</time>
      </trkpt>
      <trkpt lat="44.25799" lon="4.2055">
        <ele>153.47</ele>
        <time>2025-10-14T14:30:28Z</time>
      </trkpt>
      <trkpt lat="44.25799" lon="4.2055">
        <ele>154.43</ele>
        <time>2025-10-14T14:30:31Z</time>
      </trkpt>
      <trkpt lat="44.258" lon="4.2055">
        <ele>153.47</ele>
        <time>2025-10-14T14:30:46Z</time>
      </trkpt>
      <trkpt lat="44.25799" lon="4.20546">
        <ele>155.39</ele>
        <time>2025-10-14T14:30:53Z</time>
      </trkpt>
      <trkpt lat="44.25798" lon="4.20544">
        <ele>153.47</ele>
        <time>2025-10-14T14:30:55Z</time>
      </trkpt>
      <trkpt lat="44.25792" lon="4.2053">
        <ele>153.95</ele>
        <time>2025-10-14T14:31:11Z</time>
      </trkpt>
      <trkpt lat="44.25792" lon="4.2053">
        <ele>155.39</ele>
        <time>2025-10-14T14:31:13Z</time>
      </trkpt>
      <trkpt lat="44.2579" lon="4.20527">
        <ele>154.91</ele>
        <time>2025-10-14T14:31:31Z</time>
      </trkpt>
      <trkpt lat="44.2579" lon="4.20527">
        <ele>154.91</ele>
        <time>2025-10-14T14:31:32Z</time>
      </trkpt>
      <trkpt lat="44.25794" lon="4.20534">
        <ele>153.47</ele>
        <time>2025-10-14T14:31:57Z</time>
      </trkpt>
      <trkpt lat="44.25794" lon="4.20534">
        <ele>155.39</ele>
        <time>2025-10-14T14:32:00Z</time>
      </trkpt>
      <trkpt lat="44.25793" lon="4.20533">
        <ele>153.47</ele>
        <time>2025-10-14T14:32:07Z</time>
      </trkpt>
      <trkpt lat="44.25794" lon="4.20532">
        <ele>153.47</ele>
        <time>2025-10-14T14:32:18Z</time>
      </trkpt>
      <trkpt lat="44.25793" lon="4.20532">
        <ele>155.39</ele>
        <time>2025-10-14T14:32:23Z</time>
      </trkpt>
      <trkpt lat="44.25791" lon="4.2053">
        <ele>155.39</ele>
        <time>2025-10-14T14:32:34Z</time>
      </trkpt>
      <trkpt lat="44.25792" lon="4.20531">
        <ele>155.39</ele>
        <time>2025-10-14T14:33:01Z</time>
      </trkpt>
      <trkpt lat="44.25792" lon="4.2053">
        <ele>153.47</ele>
        <time>2025-10-14T14:33:06Z</time>
      </trkpt>
      <trkpt lat="44.25792" lon="4.2053">
        <ele>154.91</ele>
        <time>2025-10-14T14:33:10Z</time>
      </trkpt>
      <trkpt lat="44.2579" lon="4.2053">
        <ele>153.95</ele>
        <time>2025-10-14T14:33:18Z</time>
      </trkpt>
      <trkpt lat="44.2579" lon="4.2053">
        <ele>154.91</ele>
        <time>2025-10-14T14:33:20Z</time>
      </trkpt>
      <trkpt lat="44.25791" lon="4.2053">
        <ele>153.95</ele>
        <time>2025-10-14T14:33:22Z</time>
      </trkpt>
      <trkpt lat="44.2579" lon="4.20529">
        <ele>155.39</ele>
        <time>2025-10-14T14:33:35Z</time>
      </trkpt>
      <trkpt lat="44.2579" lon="4.20528">
        <ele>154.43</ele>
        <time>2025-10-14T14:33:38Z</time>
      </trkpt>
      <trkpt lat="44.2579" lon="4.2051">
        <ele>153.47</ele>
        <time>2025-10-14T14:33:54Z</time>
      </trkpt>
      <trkpt lat="44.2579" lon="4.20507">
        <ele>155.87</ele>
        <time>2025-10-14T14:33:56Z</time>
      </trkpt>
      <trkpt lat="44.25789" lon="4.20502">
        <ele>154.43</ele>
        <time>2025-10-14T14:34:00Z</time>
      </trkpt>
      <trkpt lat="44.2579" lon="4.20499">
        <ele>155.39</ele>
        <time>2025-10-14T14:34:02Z</time>
      </trkpt>
      <trkpt lat="44.25791" lon="4.20476">
        <ele>153.47</ele>
        <time>2025-10-14T14:34:21Z</time>
      </trkpt>
      <trkpt lat="44.25788" lon="4.20456">
        <ele>152.99</ele>
        <time>2025-10-14T14:34:37Z</time>
      </trkpt>
      <trkpt lat="44.25791" lon="4.20437">
        <ele>153.47</ele>
        <time>2025-10-14T14:34:53Z</time>
      </trkpt>
      <trkpt lat="44.25793" lon="4.2043">
        <ele>152.99</ele>
        <time>2025-10-14T14:34:58Z</time>
      </trkpt>
      <trkpt lat="44.25794" lon="4.20426">
        <ele>151.54</ele>
        <time>2025-10-14T14:35:00Z</time>
      </trkpt>
      <trkpt lat="44.25803" lon="4.20401">
        <ele>151.54</ele>
        <time>2025-10-14T14:35:18Z</time>
      </trkpt>
      <trkpt lat="44.25812" lon="4.20372">
        <ele>151.06</ele>
        <time>2025-10-14T14:35:37Z</time>
      </trkpt>
      <trkpt lat="44.25823" lon="4.20345">
        <ele>149.62</ele>
        <time>2025-10-14T14:35:57Z</time>
      </trkpt>
      <trkpt lat="44.25836" lon="4.20317">
        <ele>148.18</ele>
        <time>2025-10-14T14:36:17Z</time>
      </trkpt>
      <trkpt lat="44.2584" lon="4.20303">
        <ele>148.66</ele>
        <time>2025-10-14T14:36:29Z</time>
      </trkpt>
      <trkpt lat="44.25849" lon="4.20283">
        <ele>147.7</ele>
        <time>2025-10-14T14:36:45Z</time>
      </trkpt>
      <trkpt lat="44.25858" lon="4.20263">
        <ele>145.78</ele>
        <time>2025-10-14T14:37:03Z</time>
      </trkpt>
      <trkpt lat="44.25859" lon="4.2026">
        <ele>146.74</ele>
        <time>2025-10-14T14:37:06Z</time>
      </trkpt>
      <trkpt lat="44.25867" lon="4.20238">
        <ele>145.3</ele>
        <time>2025-10-14T14:37:24Z</time>
      </trkpt>
      <trkpt lat="44.2588" lon="4.20213">
        <ele>144.82</ele>
        <time>2025-10-14T14:37:42Z</time>
      </trkpt>
      <trkpt lat="44.25882" lon="4.20208">
        <ele>143.37</ele>
        <time>2025-10-14T14:37:47Z</time>
      </trkpt>
      <trkpt lat="44.25894" lon="4.20183">
        <ele>143.37</ele>
        <time>2025-10-14T14:38:05Z</time>
      </trkpt>
      <trkpt lat="44.25906" lon="4.20162">
        <ele>142.41</ele>
        <time>2025-10-14T14:38:23Z</time>
      </trkpt>
      <trkpt lat="44.25917" lon="4.20156">
        <ele>143.85</ele>
        <time>2025-10-14T14:38:39Z</time>
      </trkpt>
      <trkpt lat="44.2592" lon="4.20152">
        <ele>142.41</ele>
        <time>2025-10-14T14:38:43Z</time>
      </trkpt>
      <trkpt lat="44.25927" lon="4.2013">
        <ele>140.97</ele>
        <time>2025-10-14T14:38:59Z</time>
      </trkpt>
      <trkpt lat="44.25927" lon="4.20129">
        <ele>140.97</ele>
        <time>2025-10-14T14:39:00Z</time>
      </trkpt>
      <trkpt lat="44.25928" lon="4.20126">
        <ele>142.89</ele>
        <time>2025-10-14T14:39:02Z</time>
      </trkpt>
      <trkpt lat="44.25931" lon="4.20122">
        <ele>140.97</ele>
        <time>2025-10-14T14:39:07Z</time>
      </trkpt>
      <trkpt lat="44.25933" lon="4.20121">
        <ele>143.37</ele>
        <time>2025-10-14T14:39:09Z</time>
      </trkpt>
      <trkpt lat="44.25934" lon="4.2012">
        <ele>141.93</ele>
        <time>2025-10-14T14:39:11Z</time>
      </trkpt>
      <trkpt lat="44.25954" lon="4.20107">
        <ele>140.49</ele>
        <time>2025-10-14T14:39:28Z</time>
      </trkpt>
      <trkpt lat="44.25963" lon="4.20103">
        <ele>140.97</ele>
        <time>2025-10-14T14:39:36Z</time>
      </trkpt>
      <trkpt lat="44.25969" lon="4.201">
        <ele>139.53</ele>
        <time>2025-10-14T14:39:42Z</time>
      </trkpt>
      <trkpt lat="44.25983" lon="4.20089">
        <ele>138.57</ele>
        <time>2025-10-14T14:39:59Z</time>
      </trkpt>
      <trkpt lat="44.25993" lon="4.20086">
        <ele>138.57</ele>
        <time>2025-10-14T14:40:07Z</time>
      </trkpt>
      <trkpt lat="44.25998" lon="4.20099">
        <ele>137.61</ele>
        <time>2025-10-14T14:40:24Z</time>
      </trkpt>
      <trkpt lat="44.26002" lon="4.20111">
        <ele>137.13</ele>
        <time>2025-10-14T14:40:36Z</time>
      </trkpt>
      <trkpt lat="44.2601" lon="4.20137">
        <ele>136.64</ele>
        <time>2025-10-14T14:40:56Z</time>
      </trkpt>
      <trkpt lat="44.26009" lon="4.20144">
        <ele>134.72</ele>
        <time>2025-10-14T14:41:14Z</time>
      </trkpt>
      <trkpt lat="44.2601" lon="4.20144">
        <ele>139.05</ele>
        <time>2025-10-14T14:41:15Z</time>
      </trkpt>
    </trkseg>
  </trk>
</gpx>